<?xml version='1.0' encoding='UTF-8'?><gpx version="1.1" creator="JPX - https://github.com/jenetics/jpx" xmlns="http://www.topografix.com/GPX/1/1"><trk><trkseg><trkpt lat="52.49037350428698" lon="-3.6700045339291756"><ele>316.0</ele><time>2026-04-11T09:23:12Z</time></trkpt><trkpt lat="52.490308691096764" lon="-3.6699123763613604"><ele>316.0</ele><time>2026-04-11T09:23:14Z</time></trkpt><trkpt lat="52.49021972270593" lon="-3.669771939104874"><ele>316.0</ele><time>2026-04-11T09:23:16Z</time></trkpt><trkpt lat="52.490172814048385" lon="-3.669679660305789"><ele>316.0</ele><time>2026-04-11T09:23:17Z</time></trkpt><trkpt lat="52.49011672755078" lon="-3.6695759207140295"><ele>316.0</ele><time>2026-04-11T09:23:18Z</time></trkpt><trkpt lat="52.490054245411585" lon="-3.66946747636085"><ele>315.3333333333333</ele><time>2026-04-11T09:23:19Z</time></trkpt><trkpt lat="52.489995178438036" lon="-3.6693676106973"><ele>314.66666666666663</ele><time>2026-04-11T09:23:20Z</time></trkpt><trkpt lat="52.48993911169944" lon="-3.669265471467239"><ele>314.0</ele><time>2026-04-11T09:23:21Z</time></trkpt><trkpt lat="52.489887675879665" lon="-3.669152234202643"><ele>313.3333333333333</ele><time>2026-04-11T09:23:22Z</time></trkpt><trkpt lat="52.48982752682905" lon="-3.669046853899746"><ele>312.6666666666667</ele><time>2026-04-11T09:23:23Z</time></trkpt><trkpt lat="52.48976766875528" lon="-3.668939838039865"><ele>312.0</ele><time>2026-04-11T09:23:24Z</time></trkpt><trkpt lat="52.48970374732947" lon="-3.6688309711904243"><ele>312.0</ele><time>2026-04-11T09:23:25Z</time></trkpt><trkpt lat="52.489640226036364" lon="-3.6687234298087095"><ele>312.0</ele><time>2026-04-11T09:23:26Z</time></trkpt><trkpt lat="52.48957705799631" lon="-3.668614976170113"><ele>312.0</ele><time>2026-04-11T09:23:27Z</time></trkpt><trkpt lat="52.48951636852448" lon="-3.668508797561383"><ele>312.0</ele><time>2026-04-11T09:23:28Z</time></trkpt><trkpt lat="52.48945790024132" lon="-3.668400589273207"><ele>312.0</ele><time>2026-04-11T09:23:29Z</time></trkpt><trkpt lat="52.489399910376335" lon="-3.6682933400228097"><ele>312.0</ele><time>2026-04-11T09:23:30Z</time></trkpt><trkpt lat="52.489346752062566" lon="-3.668193354587135"><ele>309.8333333333333</ele><time>2026-04-11T09:23:31Z</time></trkpt><trkpt lat="52.48928708587226" lon="-3.6680997034022638"><ele>307.6666666666667</ele><time>2026-04-11T09:23:32Z</time></trkpt><trkpt lat="52.48923524161419" lon="-3.6680041039843037"><ele>305.5</ele><time>2026-04-11T09:23:33Z</time></trkpt><trkpt lat="52.489184918682334" lon="-3.6679122473921266"><ele>303.33333333333337</ele><time>2026-04-11T09:23:34Z</time></trkpt><trkpt lat="52.489142340869066" lon="-3.6678332458991925"><ele>301.1666666666667</ele><time>2026-04-11T09:23:35Z</time></trkpt><trkpt lat="52.48909814272529" lon="-3.667758577507102"><ele>299.0</ele><time>2026-04-11T09:23:36Z</time></trkpt><trkpt lat="52.48903610407789" lon="-3.667635267815644"><ele>299.0</ele><time>2026-04-11T09:23:38Z</time></trkpt><trkpt lat="52.48899749063263" lon="-3.667543809799919"><ele>299.0</ele><time>2026-04-11T09:23:42Z</time></trkpt><trkpt lat="52.48904724124785" lon="-3.667612099953704"><ele>299.0</ele><time>2026-04-11T09:23:45Z</time></trkpt><trkpt lat="52.489089470462545" lon="-3.6677017825774043"><ele>299.0</ele><time>2026-04-11T09:23:48Z</time></trkpt><trkpt lat="52.48913427738509" lon="-3.667820286788066"><ele>299.0</ele><time>2026-04-11T09:23:51Z</time></trkpt><trkpt lat="52.48922362494448" lon="-3.6679854185730827"><ele>299.0</ele><time>2026-04-11T09:23:53Z</time></trkpt><trkpt lat="52.489278533236714" lon="-3.6680752437108888"><ele>299.0</ele><time>2026-04-11T09:23:54Z</time></trkpt><trkpt lat="52.48933741388217" lon="-3.6681768328859676"><ele>299.0</ele><time>2026-04-11T09:23:55Z</time></trkpt><trkpt lat="52.489387987295515" lon="-3.6683307325735246"><ele>299.0</ele><time>2026-04-11T09:23:56Z</time></trkpt><trkpt lat="52.48946783146159" lon="-3.668472520578691"><ele>299.0</ele><time>2026-04-11T09:23:57Z</time></trkpt><trkpt lat="52.489557190325044" lon="-3.668630429503414"><ele>299.0</ele><time>2026-04-11T09:23:58Z</time></trkpt><trkpt lat="52.48964651436077" lon="-3.66878897839916"><ele>302.25</ele><time>2026-04-11T09:23:59Z</time></trkpt><trkpt lat="52.48973634967751" lon="-3.668949386179767"><ele>305.5</ele><time>2026-04-11T09:24:00Z</time></trkpt><trkpt lat="52.489839123335294" lon="-3.669106718722688"><ele>308.75</ele><time>2026-04-11T09:24:01Z</time></trkpt><trkpt lat="52.489933783677415" lon="-3.6692681420981224"><ele>312.0</ele><time>2026-04-11T09:24:02Z</time></trkpt><trkpt lat="52.49002500814166" lon="-3.6694466888175707"><ele>312.8</ele><time>2026-04-11T09:24:03Z</time></trkpt><trkpt lat="52.49011347588219" lon="-3.6696040462577972"><ele>313.6</ele><time>2026-04-11T09:24:04Z</time></trkpt><trkpt lat="52.490183956019024" lon="-3.669739909191053"><ele>314.40000000000003</ele><time>2026-04-11T09:24:05Z</time></trkpt><trkpt lat="52.490240494454575" lon="-3.66984274150735"><ele>315.2</ele><time>2026-04-11T09:24:06Z</time></trkpt><trkpt lat="52.49031351871419" lon="-3.669978966050271"><ele>316.0</ele><time>2026-04-11T09:24:08Z</time></trkpt><trkpt lat="52.49034796706609" lon="-3.6700732807636545"><ele>319.75</ele><time>2026-04-11T09:24:10Z</time></trkpt><trkpt lat="52.49050271572299" lon="-3.669965064879957"><ele>323.5</ele><time>2026-04-11T09:24:14Z</time></trkpt><trkpt lat="52.49055984595895" lon="-3.6698512242964556"><ele>327.25</ele><time>2026-04-11T09:24:15Z</time></trkpt><trkpt lat="52.49061925133709" lon="-3.6697051539196144"><ele>331.0</ele><time>2026-04-11T09:24:16Z</time></trkpt><trkpt lat="52.49068690912877" lon="-3.669523355473615"><ele>330.25</ele><time>2026-04-11T09:24:17Z</time></trkpt><trkpt lat="52.49075795264363" lon="-3.6693346004769296"><ele>329.5</ele><time>2026-04-11T09:24:18Z</time></trkpt><trkpt lat="52.49083495005705" lon="-3.669140551576316"><ele>328.75</ele><time>2026-04-11T09:24:19Z</time></trkpt><trkpt lat="52.490902245297" lon="-3.668947745434316"><ele>328.0</ele><time>2026-04-11T09:24:20Z</time></trkpt><trkpt lat="52.49096851181088" lon="-3.66875820274939"><ele>329.0</ele><time>2026-04-11T09:24:21Z</time></trkpt><trkpt lat="52.49103745192293" lon="-3.6685751774237674"><ele>330.0</ele><time>2026-04-11T09:24:22Z</time></trkpt><trkpt lat="52.49111202990089" lon="-3.668391539787329"><ele>331.0</ele><time>2026-04-11T09:24:23Z</time></trkpt><trkpt lat="52.49120135285144" lon="-3.6682181605962505"><ele>332.0</ele><time>2026-04-11T09:24:24Z</time></trkpt><trkpt lat="52.491303452863335" lon="-3.6680525634774312"><ele>332.0</ele><time>2026-04-11T09:24:25Z</time></trkpt><trkpt lat="52.49141270003778" lon="-3.667886543595608"><ele>332.0</ele><time>2026-04-11T09:24:26Z</time></trkpt><trkpt lat="52.4915294239064" lon="-3.6677073450482873"><ele>332.0</ele><time>2026-04-11T09:24:27Z</time></trkpt><trkpt lat="52.49164619852189" lon="-3.667531807141063"><ele>329.0</ele><time>2026-04-11T09:24:28Z</time></trkpt><trkpt lat="52.491775828356054" lon="-3.6673485419037863"><ele>326.0</ele><time>2026-04-11T09:24:29Z</time></trkpt><trkpt lat="52.49190361443662" lon="-3.667164588791197"><ele>323.0</ele><time>2026-04-11T09:24:30Z</time></trkpt><trkpt lat="52.49202846464987" lon="-3.666980089866499"><ele>326.0</ele><time>2026-04-11T09:24:31Z</time></trkpt><trkpt lat="52.492148661287764" lon="-3.66678017153997"><ele>329.0</ele><time>2026-04-11T09:24:32Z</time></trkpt><trkpt lat="52.49226187248115" lon="-3.6665726171742743"><ele>332.0</ele><time>2026-04-11T09:24:33Z</time></trkpt><trkpt lat="52.49237669676935" lon="-3.6663616603501645"><ele>332.0</ele><time>2026-04-11T09:24:34Z</time></trkpt><trkpt lat="52.49249697545915" lon="-3.66616141956946"><ele>332.0</ele><time>2026-04-11T09:24:35Z</time></trkpt><trkpt lat="52.49262963463477" lon="-3.665962325675885"><ele>332.0</ele><time>2026-04-11T09:24:36Z</time></trkpt><trkpt lat="52.49276113875279" lon="-3.665770282896354"><ele>332.33333333333337</ele><time>2026-04-11T09:24:37Z</time></trkpt><trkpt lat="52.492887538741336" lon="-3.665581409730845"><ele>332.6666666666667</ele><time>2026-04-11T09:24:38Z</time></trkpt><trkpt lat="52.49299988345993" lon="-3.665418506638641"><ele>333.0</ele><time>2026-04-11T09:24:39Z</time></trkpt><trkpt lat="52.49311303820629" lon="-3.6652507983414226"><ele>333.0</ele><time>2026-04-11T09:24:40Z</time></trkpt><trkpt lat="52.49322864623542" lon="-3.665083717524711"><ele>333.0</ele><time>2026-04-11T09:24:41Z</time></trkpt><trkpt lat="52.49334890127494" lon="-3.664928721874351"><ele>333.0</ele><time>2026-04-11T09:24:42Z</time></trkpt><trkpt lat="52.4934681479825" lon="-3.6647862136381537"><ele>333.0</ele><time>2026-04-11T09:24:43Z</time></trkpt><trkpt lat="52.49358393616418" lon="-3.6646468589801895"><ele>333.0</ele><time>2026-04-11T09:24:44Z</time></trkpt><trkpt lat="52.493699209189195" lon="-3.6645044309252066"><ele>333.0</ele><time>2026-04-11T09:24:45Z</time></trkpt><trkpt lat="52.49382002748212" lon="-3.6643573924910573"><ele>333.0</ele><time>2026-04-11T09:24:46Z</time></trkpt><trkpt lat="52.49394762158175" lon="-3.6642122092334035"><ele>333.5</ele><time>2026-04-11T09:24:47Z</time></trkpt><trkpt lat="52.49407525331139" lon="-3.664078821983048"><ele>334.0</ele><time>2026-04-11T09:24:48Z</time></trkpt><trkpt lat="52.49420059969139" lon="-3.6639511039841075"><ele>334.5</ele><time>2026-04-11T09:24:49Z</time></trkpt><trkpt lat="52.494326550626816" lon="-3.6638190416077614"><ele>335.0</ele><time>2026-04-11T09:24:50Z</time></trkpt><trkpt lat="52.49444757574949" lon="-3.6636939748900232"><ele>335.25</ele><time>2026-04-11T09:24:51Z</time></trkpt><trkpt lat="52.49456408387502" lon="-3.6635714022579404"><ele>335.5</ele><time>2026-04-11T09:24:52Z</time></trkpt><trkpt lat="52.494677236534066" lon="-3.6634596937903376"><ele>335.75</ele><time>2026-04-11T09:24:53Z</time></trkpt><trkpt lat="52.49480141618013" lon="-3.6633582174876467"><ele>336.0</ele><time>2026-04-11T09:24:54Z</time></trkpt><trkpt lat="52.494936571391996" lon="-3.6632673680941843"><ele>336.0</ele><time>2026-04-11T09:24:55Z</time></trkpt><trkpt lat="52.495076562371544" lon="-3.663179930780759"><ele>336.0</ele><time>2026-04-11T09:24:56Z</time></trkpt><trkpt lat="52.49522280361751" lon="-3.6631126135734213"><ele>336.0</ele><time>2026-04-11T09:24:57Z</time></trkpt><trkpt lat="52.49537544032656" lon="-3.6630877244462403"><ele>335.0</ele><time>2026-04-11T09:24:58Z</time></trkpt><trkpt lat="52.4955304091473" lon="-3.663032170239634"><ele>334.0</ele><time>2026-04-11T09:24:59Z</time></trkpt><trkpt lat="52.495686600433515" lon="-3.6630167730588474"><ele>333.0</ele><time>2026-04-11T09:25:00Z</time></trkpt><trkpt lat="52.49583819370061" lon="-3.6629918759196274"><ele>333.0</ele><time>2026-04-11T09:25:01Z</time></trkpt><trkpt lat="52.49598566793344" lon="-3.6629547249408905"><ele>333.0</ele><time>2026-04-11T09:25:02Z</time></trkpt><trkpt lat="52.49612731179171" lon="-3.6629212319131335"><ele>333.0</ele><time>2026-04-11T09:25:03Z</time></trkpt><trkpt lat="52.49626008532041" lon="-3.6628954206896154"><ele>333.0</ele><time>2026-04-11T09:25:04Z</time></trkpt><trkpt lat="52.49639005275932" lon="-3.66286648929599"><ele>333.0</ele><time>2026-04-11T09:25:05Z</time></trkpt><trkpt lat="52.4965176876448" lon="-3.6628586626949313"><ele>333.0</ele><time>2026-04-11T09:25:06Z</time></trkpt><trkpt lat="52.496642156347335" lon="-3.6628564026427592"><ele>333.0</ele><time>2026-04-11T09:25:07Z</time></trkpt><trkpt lat="52.496767264336356" lon="-3.662842695168459"><ele>333.0</ele><time>2026-04-11T09:25:08Z</time></trkpt><trkpt lat="52.49689572884808" lon="-3.6628089992402253"><ele>333.0</ele><time>2026-04-11T09:25:09Z</time></trkpt><trkpt lat="52.49702744429083" lon="-3.6627727838489386"><ele>333.0</ele><time>2026-04-11T09:25:10Z</time></trkpt><trkpt lat="52.497158234824944" lon="-3.6627321298643705"><ele>333.0</ele><time>2026-04-11T09:25:11Z</time></trkpt><trkpt lat="52.49728911007628" lon="-3.6626853559093266"><ele>333.0</ele><time>2026-04-11T09:25:12Z</time></trkpt><trkpt lat="52.497414311233925" lon="-3.662644350653698"><ele>330.5</ele><time>2026-04-11T09:25:13Z</time></trkpt><trkpt lat="52.497537904784764" lon="-3.6626013282480874"><ele>328.0</ele><time>2026-04-11T09:25:14Z</time></trkpt><trkpt lat="52.49766222005931" lon="-3.662580913240766"><ele>325.5</ele><time>2026-04-11T09:25:15Z</time></trkpt><trkpt lat="52.49778948589791" lon="-3.6625864703331086"><ele>323.0</ele><time>2026-04-11T09:25:16Z</time></trkpt><trkpt lat="52.49791199681598" lon="-3.6626003302091754"><ele>322.2</ele><time>2026-04-11T09:25:17Z</time></trkpt><trkpt lat="52.498028217242116" lon="-3.6626115714545535"><ele>321.4</ele><time>2026-04-11T09:25:18Z</time></trkpt><trkpt lat="52.49812024289466" lon="-3.662612894750455"><ele>320.59999999999997</ele><time>2026-04-11T09:25:19Z</time></trkpt><trkpt lat="52.4982099116461" lon="-3.6625658382005355"><ele>319.79999999999995</ele><time>2026-04-11T09:25:20Z</time></trkpt><trkpt lat="52.49829185406181" lon="-3.662493888326082"><ele>319.0</ele><time>2026-04-11T09:25:21Z</time></trkpt><trkpt lat="52.498370284732154" lon="-3.6624033715980038"><ele>319.0</ele><time>2026-04-11T09:25:22Z</time></trkpt><trkpt lat="52.49845009331918" lon="-3.6623085783396214"><ele>319.0</ele><time>2026-04-11T09:25:23Z</time></trkpt><trkpt lat="52.49853181548721" lon="-3.662208888899163"><ele>319.0</ele><time>2026-04-11T09:25:24Z</time></trkpt><trkpt lat="52.49861405037166" lon="-3.6621053706725495"><ele>319.0</ele><time>2026-04-11T09:25:25Z</time></trkpt><trkpt lat="52.498694457833864" lon="-3.66201041624705"><ele>319.0</ele><time>2026-04-11T09:25:26Z</time></trkpt><trkpt lat="52.498774065528224" lon="-3.661922367432092"><ele>318.8</ele><time>2026-04-11T09:25:27Z</time></trkpt><trkpt lat="52.49885447033732" lon="-3.661838098869677"><ele>318.59999999999997</ele><time>2026-04-11T09:25:28Z</time></trkpt><trkpt lat="52.498940554533284" lon="-3.6617867912934434"><ele>318.4</ele><time>2026-04-11T09:25:29Z</time></trkpt><trkpt lat="52.49903315918267" lon="-3.6617700474210304"><ele>318.2</ele><time>2026-04-11T09:25:30Z</time></trkpt><trkpt lat="52.49913262383608" lon="-3.661766070835297"><ele>318.0</ele><time>2026-04-11T09:25:31Z</time></trkpt><trkpt lat="52.499241149440934" lon="-3.6617635202301217"><ele>318.0</ele><time>2026-04-11T09:25:32Z</time></trkpt><trkpt lat="52.499350106377875" lon="-3.6617585597914375"><ele>318.0</ele><time>2026-04-11T09:25:33Z</time></trkpt><trkpt lat="52.49945043578667" lon="-3.66173166483708"><ele>318.0</ele><time>2026-04-11T09:25:34Z</time></trkpt><trkpt lat="52.4995422245773" lon="-3.6616825793983074"><ele>318.0</ele><time>2026-04-11T09:25:35Z</time></trkpt><trkpt lat="52.499638340261306" lon="-3.661629850963217"><ele>318.0</ele><time>2026-04-11T09:25:36Z</time></trkpt><trkpt lat="52.499736854325064" lon="-3.6615865087870207"><ele>315.2</ele><time>2026-04-11T09:25:37Z</time></trkpt><trkpt lat="52.499843601923" lon="-3.6615511802650413"><ele>312.4</ele><time>2026-04-11T09:25:38Z</time></trkpt><trkpt lat="52.4999446138106" lon="-3.6615288505189105"><ele>309.59999999999997</ele><time>2026-04-11T09:25:39Z</time></trkpt><trkpt lat="52.50004295855266" lon="-3.661518885430833"><ele>306.8</ele><time>2026-04-11T09:25:40Z</time></trkpt><trkpt lat="52.50013305920617" lon="-3.6615229326931695"><ele>304.0</ele><time>2026-04-11T09:25:41Z</time></trkpt><trkpt lat="52.50022775023484" lon="-3.6615301991066613"><ele>304.0</ele><time>2026-04-11T09:25:42Z</time></trkpt><trkpt lat="52.50031870177994" lon="-3.6615450166111834"><ele>304.0</ele><time>2026-04-11T09:25:43Z</time></trkpt><trkpt lat="52.50040947776541" lon="-3.6615528538993645"><ele>304.0</ele><time>2026-04-11T09:25:44Z</time></trkpt><trkpt lat="52.500502146456924" lon="-3.6615498166377143"><ele>304.0</ele><time>2026-04-11T09:25:45Z</time></trkpt><trkpt lat="52.500589233005634" lon="-3.6615439593617207"><ele>304.0</ele><time>2026-04-11T09:25:46Z</time></trkpt><trkpt lat="52.50067699974053" lon="-3.6615454301672643"><ele>302.5</ele><time>2026-04-11T09:25:47Z</time></trkpt><trkpt lat="52.50076887811083" lon="-3.661570727029287"><ele>301.0</ele><time>2026-04-11T09:25:48Z</time></trkpt><trkpt lat="52.50084374235983" lon="-3.6616346028532747"><ele>299.5</ele><time>2026-04-11T09:25:49Z</time></trkpt><trkpt lat="52.50088729252981" lon="-3.6617503932214017"><ele>298.0</ele><time>2026-04-11T09:25:50Z</time></trkpt><trkpt lat="52.500928742524614" lon="-3.6618594707832073"><ele>296.5</ele><time>2026-04-11T09:25:51Z</time></trkpt><trkpt lat="52.500983208692325" lon="-3.6619509721983037"><ele>295.0</ele><time>2026-04-11T09:25:52Z</time></trkpt><trkpt lat="52.501039420836356" lon="-3.6620632342033868"><ele>295.0</ele><time>2026-04-11T09:25:53Z</time></trkpt><trkpt lat="52.50109670569952" lon="-3.6621747772222752"><ele>295.0</ele><time>2026-04-11T09:25:54Z</time></trkpt><trkpt lat="52.50115048559165" lon="-3.662290125641276"><ele>295.0</ele><time>2026-04-11T09:25:55Z</time></trkpt><trkpt lat="52.50120372982669" lon="-3.662410139912341"><ele>295.0</ele><time>2026-04-11T09:25:56Z</time></trkpt><trkpt lat="52.5012637961573" lon="-3.6625263948874363"><ele>295.0</ele><time>2026-04-11T09:25:57Z</time></trkpt><trkpt lat="52.50132602094489" lon="-3.6626441577808926"><ele>295.0</ele><time>2026-04-11T09:25:58Z</time></trkpt><trkpt lat="52.50138020496339" lon="-3.6627631651602077"><ele>295.0</ele><time>2026-04-11T09:25:59Z</time></trkpt><trkpt lat="52.501426211516176" lon="-3.662882571119092"><ele>295.0</ele><time>2026-04-11T09:26:00Z</time></trkpt><trkpt lat="52.50145541163798" lon="-3.663023249157935"><ele>295.0</ele><time>2026-04-11T09:26:01Z</time></trkpt><trkpt lat="52.501506804405636" lon="-3.6631700816415287"><ele>295.0</ele><time>2026-04-11T09:26:02Z</time></trkpt><trkpt lat="52.501543314912546" lon="-3.663332656480816"><ele>295.4</ele><time>2026-04-11T09:26:03Z</time></trkpt><trkpt lat="52.501584506540944" lon="-3.663477699137149"><ele>295.8</ele><time>2026-04-11T09:26:04Z</time></trkpt><trkpt lat="52.50163560078091" lon="-3.6635923435822373"><ele>296.2</ele><time>2026-04-11T09:26:05Z</time></trkpt><trkpt lat="52.5016950006769" lon="-3.6636420217309986"><ele>296.6</ele><time>2026-04-11T09:26:06Z</time></trkpt><trkpt lat="52.50181931851354" lon="-3.6636090254612466"><ele>297.0</ele><time>2026-04-11T09:26:08Z</time></trkpt><trkpt lat="52.50186461866756" lon="-3.6635069765294768"><ele>297.0</ele><time>2026-04-11T09:26:09Z</time></trkpt><trkpt lat="52.50191430941785" lon="-3.663426863881136"><ele>297.0</ele><time>2026-04-11T09:26:10Z</time></trkpt><trkpt lat="52.5019695242901" lon="-3.6633222616912486"><ele>297.0</ele><time>2026-04-11T09:26:11Z</time></trkpt><trkpt lat="52.502016159107576" lon="-3.6631853322742476"><ele>297.0</ele><time>2026-04-11T09:26:12Z</time></trkpt><trkpt lat="52.50205887081593" lon="-3.6630340381561446"><ele>297.0</ele><time>2026-04-11T09:26:13Z</time></trkpt><trkpt lat="52.50209713605715" lon="-3.6629048642787008"><ele>297.0</ele><time>2026-04-11T09:26:14Z</time></trkpt><trkpt lat="52.50213810372299" lon="-3.662777642664834"><ele>298.6</ele><time>2026-04-11T09:26:15Z</time></trkpt><trkpt lat="52.50219734595073" lon="-3.662649894881008"><ele>300.2</ele><time>2026-04-11T09:26:16Z</time></trkpt><trkpt lat="52.50226606050384" lon="-3.662526433023902"><ele>301.8</ele><time>2026-04-11T09:26:17Z</time></trkpt><trkpt lat="52.502359462063794" lon="-3.662420200938312"><ele>303.4</ele><time>2026-04-11T09:26:18Z</time></trkpt><trkpt lat="52.50244882678889" lon="-3.662302476292651"><ele>305.0</ele><time>2026-04-11T09:26:19Z</time></trkpt><trkpt lat="52.50254789127239" lon="-3.6621756122279363"><ele>305.0</ele><time>2026-04-11T09:26:20Z</time></trkpt><trkpt lat="52.50263684314082" lon="-3.6620376362242597"><ele>305.0</ele><time>2026-04-11T09:26:21Z</time></trkpt><trkpt lat="52.50272222341628" lon="-3.661944598221697"><ele>305.0</ele><time>2026-04-11T09:26:22Z</time></trkpt><trkpt lat="52.502799771008114" lon="-3.6618579270329263"><ele>305.0</ele><time>2026-04-11T09:26:23Z</time></trkpt><trkpt lat="52.5028736571326" lon="-3.661774642243691"><ele>305.0</ele><time>2026-04-11T09:26:24Z</time></trkpt><trkpt lat="52.50294385235022" lon="-3.6617016739297403"><ele>305.5</ele><time>2026-04-11T09:26:25Z</time></trkpt><trkpt lat="52.50300705390619" lon="-3.6616313516356995"><ele>306.0</ele><time>2026-04-11T09:26:26Z</time></trkpt><trkpt lat="52.503056115972186" lon="-3.661566136581467"><ele>306.5</ele><time>2026-04-11T09:26:27Z</time></trkpt><trkpt lat="52.50311463899939" lon="-3.661488563803961"><ele>307.0</ele><time>2026-04-11T09:26:29Z</time></trkpt><trkpt lat="52.5031876363195" lon="-3.6615016291447278"><ele>307.5</ele><time>2026-04-11T09:30:42Z</time></trkpt><trkpt lat="52.50325390667211" lon="-3.661599387879071"><ele>308.0</ele><time>2026-04-11T09:30:44Z</time></trkpt><trkpt lat="52.503329869671845" lon="-3.6616421372269103"><ele>308.0</ele><time>2026-04-11T09:30:46Z</time></trkpt><trkpt lat="52.50340908561823" lon="-3.6616406490771425"><ele>308.0</ele><time>2026-04-11T09:30:49Z</time></trkpt><trkpt lat="52.5034790785209" lon="-3.6616607345586307"><ele>308.0</ele><time>2026-04-11T09:30:51Z</time></trkpt><trkpt lat="52.503584911441344" lon="-3.661702406363607"><ele>308.0</ele><time>2026-04-11T09:30:53Z</time></trkpt><trkpt lat="52.50365017662588" lon="-3.6617348609471754"><ele>308.0</ele><time>2026-04-11T09:30:54Z</time></trkpt><trkpt lat="52.50371381969934" lon="-3.6617585160363926"><ele>308.0</ele><time>2026-04-11T09:30:55Z</time></trkpt><trkpt lat="52.5038295471194" lon="-3.661769346184428"><ele>308.42857142857144</ele><time>2026-04-11T09:30:57Z</time></trkpt><trkpt lat="52.50389218775054" lon="-3.661803073913247"><ele>308.8571428571429</ele><time>2026-04-11T09:30:58Z</time></trkpt><trkpt lat="52.50395849805949" lon="-3.6618286950718515"><ele>309.2857142857143</ele><time>2026-04-11T09:30:59Z</time></trkpt><trkpt lat="52.50402582267915" lon="-3.661849471606129"><ele>309.7142857142857</ele><time>2026-04-11T09:31:00Z</time></trkpt><trkpt lat="52.504090863357014" lon="-3.661870066729934"><ele>310.14285714285717</ele><time>2026-04-11T09:31:01Z</time></trkpt><trkpt lat="52.504159330591264" lon="-3.661887234590477"><ele>310.57142857142856</ele><time>2026-04-11T09:31:02Z</time></trkpt><trkpt lat="52.504230292291915" lon="-3.661896373858739"><ele>311.0</ele><time>2026-04-11T09:31:03Z</time></trkpt><trkpt lat="52.50429659482098" lon="-3.6619000468048397"><ele>311.0</ele><time>2026-04-11T09:31:04Z</time></trkpt><trkpt lat="52.50437172194067" lon="-3.6619060040308025"><ele>311.0</ele><time>2026-04-11T09:31:05Z</time></trkpt><trkpt lat="52.50444666335424" lon="-3.6619148222646603"><ele>311.0</ele><time>2026-04-11T09:31:06Z</time></trkpt><trkpt lat="52.504512711968445" lon="-3.6619300730018387"><ele>311.0</ele><time>2026-04-11T09:31:07Z</time></trkpt><trkpt lat="52.504586218821544" lon="-3.661928417418651"><ele>311.0</ele><time>2026-04-11T09:31:08Z</time></trkpt><trkpt lat="52.50465633933381" lon="-3.6619268253993265"><ele>311.0</ele><time>2026-04-11T09:31:09Z</time></trkpt><trkpt lat="52.504729981779114" lon="-3.6619306152523317"><ele>311.0</ele><time>2026-04-11T09:31:10Z</time></trkpt><trkpt lat="52.504804704864846" lon="-3.6619283352780654"><ele>311.5</ele><time>2026-04-11T09:31:11Z</time></trkpt><trkpt lat="52.50488365871053" lon="-3.661928762357659"><ele>312.0</ele><time>2026-04-11T09:31:12Z</time></trkpt><trkpt lat="52.504963350110565" lon="-3.6619202103604365"><ele>312.5</ele><time>2026-04-11T09:31:13Z</time></trkpt><trkpt lat="52.50504278055281" lon="-3.661905424060525"><ele>313.0</ele><time>2026-04-11T09:31:14Z</time></trkpt><trkpt lat="52.505115026320034" lon="-3.6618923667980834"><ele>313.5</ele><time>2026-04-11T09:31:15Z</time></trkpt><trkpt lat="52.505186142799126" lon="-3.661877408244816"><ele>314.0</ele><time>2026-04-11T09:31:16Z</time></trkpt><trkpt lat="52.50525573363901" lon="-3.661859468174246"><ele>313.99999999999994</ele><time>2026-04-11T09:31:17Z</time></trkpt><trkpt lat="52.505324698696406" lon="-3.661833916386887"><ele>314.0</ele><time>2026-04-11T09:31:18Z</time></trkpt><trkpt lat="52.505391123991494" lon="-3.6618207256661037"><ele>314.0</ele><time>2026-04-11T09:31:19Z</time></trkpt><trkpt lat="52.505461864162754" lon="-3.6618042201869616"><ele>314.0</ele><time>2026-04-11T09:31:20Z</time></trkpt><trkpt lat="52.50553281228194" lon="-3.66179155982007"><ele>314.0</ele><time>2026-04-11T09:31:21Z</time></trkpt><trkpt lat="52.50560196713164" lon="-3.6617765624569376"><ele>313.99999999999994</ele><time>2026-04-11T09:31:22Z</time></trkpt><trkpt lat="52.505670611501806" lon="-3.6617597350905666"><ele>314.0</ele><time>2026-04-11T09:31:23Z</time></trkpt><trkpt lat="52.50574141686194" lon="-3.6617473420973923"><ele>313.33333333333337</ele><time>2026-04-11T09:31:24Z</time></trkpt><trkpt lat="52.5058083493583" lon="-3.661735459961034"><ele>312.6666666666667</ele><time>2026-04-11T09:31:25Z</time></trkpt><trkpt lat="52.505878552110026" lon="-3.6617227736259896"><ele>312.0</ele><time>2026-04-11T09:31:26Z</time></trkpt><trkpt lat="52.50594333707417" lon="-3.6617048321719694"><ele>311.3333333333333</ele><time>2026-04-11T09:31:27Z</time></trkpt><trkpt lat="52.50600739027365" lon="-3.6616854669624"><ele>310.66666666666663</ele><time>2026-04-11T09:31:28Z</time></trkpt><trkpt lat="52.50612507556129" lon="-3.6616577789022746"><ele>310.0</ele><time>2026-04-11T09:31:30Z</time></trkpt><trkpt lat="52.50620678052167" lon="-3.661628430377834"><ele>310.0</ele><time>2026-04-11T09:31:32Z</time></trkpt><trkpt lat="52.50629087512601" lon="-3.6616206179552724"><ele>310.0</ele><time>2026-04-11T09:31:35Z</time></trkpt><trkpt lat="52.50635633612333" lon="-3.6616531885800936"><ele>310.0</ele><time>2026-04-11T09:32:18Z</time></trkpt><trkpt lat="52.5063747937774" lon="-3.6617984200974583"><ele>310.0</ele><time>2026-04-11T09:33:20Z</time></trkpt><trkpt lat="52.50634184780717" lon="-3.6618892755525043"><ele>310.0</ele><time>2026-04-11T09:33:21Z</time></trkpt><trkpt lat="52.506312275762895" lon="-3.6619952105391564"><ele>310.0</ele><time>2026-04-11T09:33:22Z</time></trkpt><trkpt lat="52.50628641607116" lon="-3.662219432652056"><ele>310.0</ele><time>2026-04-11T09:33:24Z</time></trkpt><trkpt lat="52.5062652915513" lon="-3.662338868707259"><ele>310.0</ele><time>2026-04-11T09:33:25Z</time></trkpt><trkpt lat="52.50624691776845" lon="-3.662458145240061"><ele>310.0</ele><time>2026-04-11T09:33:26Z</time></trkpt><trkpt lat="52.50622805817122" lon="-3.6625866744842708"><ele>310.0</ele><time>2026-04-11T09:33:27Z</time></trkpt><trkpt lat="52.50621216810987" lon="-3.662703826721301"><ele>310.0</ele><time>2026-04-11T09:33:28Z</time></trkpt><trkpt lat="52.50619279616653" lon="-3.662815608631029"><ele>310.0</ele><time>2026-04-11T09:33:29Z</time></trkpt><trkpt lat="52.506171621793825" lon="-3.6629338425394713"><ele>311.3333333333333</ele><time>2026-04-11T09:33:30Z</time></trkpt><trkpt lat="52.50615369603913" lon="-3.6630496314249816"><ele>312.66666666666663</ele><time>2026-04-11T09:33:31Z</time></trkpt><trkpt lat="52.50613134796002" lon="-3.6631656604636067"><ele>314.0</ele><time>2026-04-11T09:33:32Z</time></trkpt><trkpt lat="52.50610232008903" lon="-3.6632765994213834"><ele>315.3333333333333</ele><time>2026-04-11T09:33:33Z</time></trkpt><trkpt lat="52.50606023299083" lon="-3.6633940638683384"><ele>316.6666666666667</ele><time>2026-04-11T09:33:34Z</time></trkpt><trkpt lat="52.506009553418224" lon="-3.663506655766113"><ele>318.0</ele><time>2026-04-11T09:33:35Z</time></trkpt><trkpt lat="52.505950365938844" lon="-3.6635948650225467"><ele>319.0</ele><time>2026-04-11T09:33:36Z</time></trkpt><trkpt lat="52.505887374096545" lon="-3.663687897616854"><ele>320.0</ele><time>2026-04-11T09:33:37Z</time></trkpt><trkpt lat="52.505842509898415" lon="-3.6637928361842067"><ele>321.0</ele><time>2026-04-11T09:33:38Z</time></trkpt><trkpt lat="52.50579086778241" lon="-3.6638983116775945"><ele>322.0</ele><time>2026-04-11T09:33:39Z</time></trkpt><trkpt lat="52.50572954956464" lon="-3.66400691363413"><ele>323.0</ele><time>2026-04-11T09:33:40Z</time></trkpt><trkpt lat="52.50567564493835" lon="-3.6641189692879133"><ele>324.0</ele><time>2026-04-11T09:33:41Z</time></trkpt><trkpt lat="52.50562572296396" lon="-3.6642366651080573"><ele>324.0</ele><time>2026-04-11T09:33:42Z</time></trkpt><trkpt lat="52.50557387114811" lon="-3.664356702217939"><ele>324.0</ele><time>2026-04-11T09:33:43Z</time></trkpt><trkpt lat="52.50552091295254" lon="-3.664471796754291"><ele>324.0</ele><time>2026-04-11T09:33:44Z</time></trkpt><trkpt lat="52.5054730334931" lon="-3.6645861870315533"><ele>324.0</ele><time>2026-04-11T09:33:45Z</time></trkpt><trkpt lat="52.50544303810216" lon="-3.664691261102127"><ele>324.0</ele><time>2026-04-11T09:33:46Z</time></trkpt><trkpt lat="52.5054321017134" lon="-3.664811651335089"><ele>324.0</ele><time>2026-04-11T09:33:47Z</time></trkpt><trkpt lat="52.505425056086125" lon="-3.664948968197353"><ele>325.0</ele><time>2026-04-11T09:33:48Z</time></trkpt><trkpt lat="52.50540667637084" lon="-3.6650886693588034"><ele>326.0</ele><time>2026-04-11T09:33:49Z</time></trkpt><trkpt lat="52.50538112739944" lon="-3.665233835928613"><ele>327.0</ele><time>2026-04-11T09:33:50Z</time></trkpt><trkpt lat="52.50534957519319" lon="-3.665380763296361"><ele>328.0</ele><time>2026-04-11T09:33:51Z</time></trkpt><trkpt lat="52.50531388245015" lon="-3.6655303363720906"><ele>329.0</ele><time>2026-04-11T09:33:52Z</time></trkpt><trkpt lat="52.50527351696675" lon="-3.665691378438575"><ele>330.4</ele><time>2026-04-11T09:33:53Z</time></trkpt><trkpt lat="52.50523015411143" lon="-3.6658602889060288"><ele>331.79999999999995</ele><time>2026-04-11T09:33:54Z</time></trkpt><trkpt lat="52.50518674039595" lon="-3.6660277124221947"><ele>333.20000000000005</ele><time>2026-04-11T09:33:55Z</time></trkpt><trkpt lat="52.505145965357876" lon="-3.66619389295213"><ele>334.6</ele><time>2026-04-11T09:33:56Z</time></trkpt><trkpt lat="52.50510928762179" lon="-3.666373880619668"><ele>336.0</ele><time>2026-04-11T09:33:57Z</time></trkpt><trkpt lat="52.505086571379294" lon="-3.6665548061331408"><ele>337.20000000000005</ele><time>2026-04-11T09:33:58Z</time></trkpt><trkpt lat="52.505079479079406" lon="-3.666742330995131"><ele>338.40000000000003</ele><time>2026-04-11T09:33:59Z</time></trkpt><trkpt lat="52.50507598704441" lon="-3.6669237008814486"><ele>339.6</ele><time>2026-04-11T09:34:00Z</time></trkpt><trkpt lat="52.505071724770254" lon="-3.667094382812132"><ele>340.8</ele><time>2026-04-11T09:34:01Z</time></trkpt><trkpt lat="52.50506845805931" lon="-3.6672684446363264"><ele>342.0</ele><time>2026-04-11T09:34:02Z</time></trkpt><trkpt lat="52.50506721638126" lon="-3.6674182503701207"><ele>343.20000000000005</ele><time>2026-04-11T09:34:03Z</time></trkpt><trkpt lat="52.50506779211634" lon="-3.6675873363996687"><ele>344.4</ele><time>2026-04-11T09:34:04Z</time></trkpt><trkpt lat="52.50505205178367" lon="-3.6677406839178683"><ele>345.6</ele><time>2026-04-11T09:34:05Z</time></trkpt><trkpt lat="52.505028024817186" lon="-3.6679077122521058"><ele>346.79999999999995</ele><time>2026-04-11T09:34:06Z</time></trkpt><trkpt lat="52.505006425887665" lon="-3.6680670440748924"><ele>348.0</ele><time>2026-04-11T09:34:07Z</time></trkpt><trkpt lat="52.50498500450563" lon="-3.668232271346123"><ele>350.0</ele><time>2026-04-11T09:34:08Z</time></trkpt><trkpt lat="52.50495867247203" lon="-3.668388813878512"><ele>352.0</ele><time>2026-04-11T09:34:09Z</time></trkpt><trkpt lat="52.504932426427786" lon="-3.668545500992504"><ele>354.0</ele><time>2026-04-11T09:34:10Z</time></trkpt><trkpt lat="52.50491926083804" lon="-3.6686837841901085"><ele>356.0</ele><time>2026-04-11T09:34:11Z</time></trkpt><trkpt lat="52.50489855846014" lon="-3.668817163046356"><ele>358.0</ele><time>2026-04-11T09:34:12Z</time></trkpt><trkpt lat="52.504879187915144" lon="-3.6689604543218364"><ele>359.2</ele><time>2026-04-11T09:34:13Z</time></trkpt><trkpt lat="52.504854019911086" lon="-3.6691100173363878"><ele>360.4</ele><time>2026-04-11T09:34:14Z</time></trkpt><trkpt lat="52.50483299086723" lon="-3.6692735933300678"><ele>361.59999999999997</ele><time>2026-04-11T09:34:15Z</time></trkpt><trkpt lat="52.50483203241337" lon="-3.6694268098958043"><ele>362.79999999999995</ele><time>2026-04-11T09:34:16Z</time></trkpt><trkpt lat="52.50484770928495" lon="-3.669584740992853"><ele>364.0</ele><time>2026-04-11T09:34:17Z</time></trkpt><trkpt lat="52.50487344642276" lon="-3.669742524182264"><ele>365.6</ele><time>2026-04-11T09:34:18Z</time></trkpt><trkpt lat="52.5048987790366" lon="-3.66989730037128"><ele>367.2</ele><time>2026-04-11T09:34:19Z</time></trkpt><trkpt lat="52.50491709735256" lon="-3.670042477986337"><ele>368.8</ele><time>2026-04-11T09:34:20Z</time></trkpt><trkpt lat="52.504935159492604" lon="-3.670201013876417"><ele>370.40000000000003</ele><time>2026-04-11T09:34:21Z</time></trkpt><trkpt lat="52.504945828803955" lon="-3.6703474924012367"><ele>372.0</ele><time>2026-04-11T09:34:22Z</time></trkpt><trkpt lat="52.50496295093113" lon="-3.670490695788082"><ele>373.8333333333333</ele><time>2026-04-11T09:34:23Z</time></trkpt><trkpt lat="52.504980588054266" lon="-3.670614362517742"><ele>375.6666666666667</ele><time>2026-04-11T09:34:24Z</time></trkpt><trkpt lat="52.50499674626717" lon="-3.670829375687476"><ele>377.5</ele><time>2026-04-11T09:34:26Z</time></trkpt><trkpt lat="52.505006253029975" lon="-3.67093720432287"><ele>379.33333333333337</ele><time>2026-04-11T09:34:27Z</time></trkpt><trkpt lat="52.5050494083375" lon="-3.6710776205161215"><ele>381.1666666666667</ele><time>2026-04-11T09:34:29Z</time></trkpt><trkpt lat="52.50509559756828" lon="-3.6711559302315937"><ele>383.0</ele><time>2026-04-11T09:34:30Z</time></trkpt><trkpt lat="52.505141866544484" lon="-3.6712474492622653"><ele>384.5</ele><time>2026-04-11T09:34:31Z</time></trkpt><trkpt lat="52.505190782560256" lon="-3.671346725862978"><ele>386.0</ele><time>2026-04-11T09:34:32Z</time></trkpt><trkpt lat="52.50523902305717" lon="-3.6714521200575736"><ele>387.5</ele><time>2026-04-11T09:34:33Z</time></trkpt><trkpt lat="52.505285181447924" lon="-3.6715642872411047"><ele>389.0</ele><time>2026-04-11T09:34:34Z</time></trkpt><trkpt lat="52.50532752237846" lon="-3.671688196519618"><ele>390.49999999999994</ele><time>2026-04-11T09:34:35Z</time></trkpt><trkpt lat="52.50536347745341" lon="-3.6718342715680863"><ele>392.0</ele><time>2026-04-11T09:34:36Z</time></trkpt><trkpt lat="52.505395628383376" lon="-3.671989361099277"><ele>393.75</ele><time>2026-04-11T09:34:37Z</time></trkpt><trkpt lat="52.50543330586013" lon="-3.6721581645108925"><ele>395.5</ele><time>2026-04-11T09:34:38Z</time></trkpt><trkpt lat="52.50547500282535" lon="-3.6723381675233613"><ele>397.25</ele><time>2026-04-11T09:34:39Z</time></trkpt><trkpt lat="52.50551758663935" lon="-3.672517888621922"><ele>399.0</ele><time>2026-04-11T09:34:40Z</time></trkpt><trkpt lat="52.50555940500096" lon="-3.6726972909277484"><ele>399.5</ele><time>2026-04-11T09:34:41Z</time></trkpt><trkpt lat="52.50560991731371" lon="-3.6728773189835815"><ele>400.0</ele><time>2026-04-11T09:34:42Z</time></trkpt><trkpt lat="52.505656301137215" lon="-3.6730500187049175"><ele>400.5</ele><time>2026-04-11T09:34:43Z</time></trkpt><trkpt lat="52.505708733049694" lon="-3.6732185684608365"><ele>401.0</ele><time>2026-04-11T09:34:44Z</time></trkpt><trkpt lat="52.505761908312095" lon="-3.673373710331072"><ele>401.0</ele><time>2026-04-11T09:34:45Z</time></trkpt><trkpt lat="52.50580749537035" lon="-3.673532341511293"><ele>401.0</ele><time>2026-04-11T09:34:46Z</time></trkpt><trkpt lat="52.50586250813232" lon="-3.6737049366889947"><ele>401.0</ele><time>2026-04-11T09:34:47Z</time></trkpt><trkpt lat="52.5059155449147" lon="-3.673875638104859"><ele>401.0</ele><time>2026-04-11T09:34:48Z</time></trkpt><trkpt lat="52.50596512983022" lon="-3.6740471292046673"><ele>401.75</ele><time>2026-04-11T09:34:49Z</time></trkpt><trkpt lat="52.50601493277672" lon="-3.674214881963971"><ele>402.5</ele><time>2026-04-11T09:34:50Z</time></trkpt><trkpt lat="52.50606776579928" lon="-3.674380689542707"><ele>403.25</ele><time>2026-04-11T09:34:51Z</time></trkpt><trkpt lat="52.50612149775615" lon="-3.674551066198248"><ele>404.0</ele><time>2026-04-11T09:34:52Z</time></trkpt><trkpt lat="52.506170314883356" lon="-3.6747359435941767"><ele>404.0</ele><time>2026-04-11T09:34:53Z</time></trkpt><trkpt lat="52.50622280648047" lon="-3.6749219491637226"><ele>404.0</ele><time>2026-04-11T09:34:54Z</time></trkpt><trkpt lat="52.50627585365429" lon="-3.6751073975095023"><ele>404.0</ele><time>2026-04-11T09:34:55Z</time></trkpt><trkpt lat="52.50633061507652" lon="-3.675299915621776"><ele>404.0</ele><time>2026-04-11T09:34:56Z</time></trkpt><trkpt lat="52.50638964060606" lon="-3.675492362573835"><ele>405.4</ele><time>2026-04-11T09:34:57Z</time></trkpt><trkpt lat="52.506438734771294" lon="-3.6756716624553682"><ele>406.79999999999995</ele><time>2026-04-11T09:34:58Z</time></trkpt><trkpt lat="52.50648089920818" lon="-3.6758411100779558"><ele>408.20000000000005</ele><time>2026-04-11T09:34:59Z</time></trkpt><trkpt lat="52.50652574674769" lon="-3.675988996163503"><ele>409.6</ele><time>2026-04-11T09:35:00Z</time></trkpt><trkpt lat="52.50657288843945" lon="-3.67609777776209"><ele>411.0</ele><time>2026-04-11T09:35:01Z</time></trkpt><trkpt lat="52.50663594801194" lon="-3.6761794685305067"><ele>411.1666666666667</ele><time>2026-04-11T09:35:02Z</time></trkpt><trkpt lat="52.50671550362788" lon="-3.6762545567683844"><ele>411.33333333333337</ele><time>2026-04-11T09:35:03Z</time></trkpt><trkpt lat="52.50679482110714" lon="-3.6763376257938667"><ele>411.5</ele><time>2026-04-11T09:35:04Z</time></trkpt><trkpt lat="52.50685415142252" lon="-3.6764316679575213"><ele>411.6666666666667</ele><time>2026-04-11T09:35:05Z</time></trkpt><trkpt lat="52.5068897315646" lon="-3.6765417844059702"><ele>411.83333333333337</ele><time>2026-04-11T09:35:06Z</time></trkpt><trkpt lat="52.50693114210399" lon="-3.676673786761046"><ele>412.0</ele><time>2026-04-11T09:35:07Z</time></trkpt><trkpt lat="52.50697211166402" lon="-3.676838703140458"><ele>412.0</ele><time>2026-04-11T09:35:08Z</time></trkpt><trkpt lat="52.506993084380284" lon="-3.6770069350713457"><ele>412.0</ele><time>2026-04-11T09:35:09Z</time></trkpt><trkpt lat="52.50700140861773" lon="-3.6771661427968336"><ele>412.0</ele><time>2026-04-11T09:35:10Z</time></trkpt><trkpt lat="52.50700302500997" lon="-3.677322664484373"><ele>412.0</ele><time>2026-04-11T09:35:11Z</time></trkpt><trkpt lat="52.50701192814562" lon="-3.6774643495371"><ele>412.0</ele><time>2026-04-11T09:35:12Z</time></trkpt><trkpt lat="52.50702999059005" lon="-3.6776486891099323"><ele>411.8</ele><time>2026-04-11T09:35:13Z</time></trkpt><trkpt lat="52.50703876030076" lon="-3.6778260568840664"><ele>411.6</ele><time>2026-04-11T09:35:14Z</time></trkpt><trkpt lat="52.507045652481494" lon="-3.678000526943478"><ele>411.40000000000003</ele><time>2026-04-11T09:35:15Z</time></trkpt><trkpt lat="52.50705488363703" lon="-3.6781675158327634"><ele>411.20000000000005</ele><time>2026-04-11T09:35:16Z</time></trkpt><trkpt lat="52.507060992494196" lon="-3.678324299280967"><ele>411.0</ele><time>2026-04-11T09:35:17Z</time></trkpt><trkpt lat="52.50706749337181" lon="-3.6784821812461614"><ele>411.0</ele><time>2026-04-11T09:35:18Z</time></trkpt><trkpt lat="52.50707259561305" lon="-3.6786336209290478"><ele>411.0</ele><time>2026-04-11T09:35:19Z</time></trkpt><trkpt lat="52.507080605424235" lon="-3.678776735971895"><ele>411.0</ele><time>2026-04-11T09:35:20Z</time></trkpt><trkpt lat="52.50708710161228" lon="-3.678934614825884"><ele>411.0</ele><time>2026-04-11T09:35:21Z</time></trkpt><trkpt lat="52.507094306233256" lon="-3.6791041583723056"><ele>411.0</ele><time>2026-04-11T09:35:22Z</time></trkpt><trkpt lat="52.507095608021274" lon="-3.67927897671533"><ele>411.6</ele><time>2026-04-11T09:35:23Z</time></trkpt><trkpt lat="52.507086673174925" lon="-3.6794593189949203"><ele>412.20000000000005</ele><time>2026-04-11T09:35:24Z</time></trkpt><trkpt lat="52.507062997979396" lon="-3.6796313883009724"><ele>412.79999999999995</ele><time>2026-04-11T09:35:25Z</time></trkpt><trkpt lat="52.50703963612617" lon="-3.679793168354068"><ele>413.4</ele><time>2026-04-11T09:35:26Z</time></trkpt><trkpt lat="52.50702060176282" lon="-3.6799552787665495"><ele>414.0</ele><time>2026-04-11T09:35:27Z</time></trkpt><trkpt lat="52.50700307402883" lon="-3.6801167062734033"><ele>415.4</ele><time>2026-04-11T09:35:28Z</time></trkpt><trkpt lat="52.506988819225676" lon="-3.680269799997544"><ele>416.79999999999995</ele><time>2026-04-11T09:35:29Z</time></trkpt><trkpt lat="52.50697711763088" lon="-3.6804320210300157"><ele>418.20000000000005</ele><time>2026-04-11T09:35:30Z</time></trkpt><trkpt lat="52.50696440883784" lon="-3.680584859113942"><ele>419.6</ele><time>2026-04-11T09:35:31Z</time></trkpt><trkpt lat="52.506951458712074" lon="-3.680729264811796"><ele>421.0</ele><time>2026-04-11T09:35:32Z</time></trkpt><trkpt lat="52.50693996639137" lon="-3.680849186276917"><ele>421.00000000000006</ele><time>2026-04-11T09:35:33Z</time></trkpt><trkpt lat="52.506927670962405" lon="-3.6809580598777116"><ele>421.0</ele><time>2026-04-11T09:35:34Z</time></trkpt><trkpt lat="52.506915662557766" lon="-3.6811201170121586"><ele>421.0</ele><time>2026-04-11T09:35:36Z</time></trkpt><trkpt lat="52.50692505228361" lon="-3.681246119204839"><ele>421.0</ele><time>2026-04-11T09:35:38Z</time></trkpt><trkpt lat="52.50695014434033" lon="-3.6813421471119643"><ele>421.00000000000006</ele><time>2026-04-11T09:36:03Z</time></trkpt><trkpt lat="52.50697395743566" lon="-3.6815087268135946"><ele>421.0</ele><time>2026-04-11T09:36:38Z</time></trkpt><trkpt lat="52.50703492828057" lon="-3.6817097724780194"><ele>422.0</ele><time>2026-04-11T09:36:40Z</time></trkpt><trkpt lat="52.50706872370136" lon="-3.681838371276961"><ele>423.0</ele><time>2026-04-11T09:36:41Z</time></trkpt><trkpt lat="52.507110449966156" lon="-3.681987367004805"><ele>424.0</ele><time>2026-04-11T09:36:42Z</time></trkpt><trkpt lat="52.50715826381485" lon="-3.6821364507859786"><ele>425.0</ele><time>2026-04-11T09:36:43Z</time></trkpt><trkpt lat="52.507236732103614" lon="-3.682273409106973"><ele>426.0</ele><time>2026-04-11T09:36:44Z</time></trkpt><trkpt lat="52.50733252629876" lon="-3.6823957595590278"><ele>428.25</ele><time>2026-04-11T09:36:45Z</time></trkpt><trkpt lat="52.507433507436986" lon="-3.6825179100533814"><ele>430.5</ele><time>2026-04-11T09:36:46Z</time></trkpt><trkpt lat="52.50753036634252" lon="-3.682650325446032"><ele>432.75</ele><time>2026-04-11T09:36:47Z</time></trkpt><trkpt lat="52.50761341265196" lon="-3.6827768565718197"><ele>435.0</ele><time>2026-04-11T09:36:48Z</time></trkpt><trkpt lat="52.50767904279099" lon="-3.682899714531353"><ele>436.0</ele><time>2026-04-11T09:36:49Z</time></trkpt><trkpt lat="52.50773321819604" lon="-3.683039900799885"><ele>437.0</ele><time>2026-04-11T09:36:50Z</time></trkpt><trkpt lat="52.507794613818696" lon="-3.683208373571991"><ele>438.0</ele><time>2026-04-11T09:36:51Z</time></trkpt><trkpt lat="52.50786653313584" lon="-3.683387247435115"><ele>439.0</ele><time>2026-04-11T09:36:52Z</time></trkpt><trkpt lat="52.507933369940886" lon="-3.68357044883264"><ele>442.25</ele><time>2026-04-11T09:36:53Z</time></trkpt><trkpt lat="52.507999036203785" lon="-3.683745086318547"><ele>445.5</ele><time>2026-04-11T09:36:54Z</time></trkpt><trkpt lat="52.508067765432784" lon="-3.6839085287726143"><ele>448.75</ele><time>2026-04-11T09:36:55Z</time></trkpt><trkpt lat="52.508141329671496" lon="-3.6840617241000357"><ele>452.0</ele><time>2026-04-11T09:36:56Z</time></trkpt><trkpt lat="52.50820341124173" lon="-3.6841889410607283"><ele>452.0</ele><time>2026-04-11T09:36:57Z</time></trkpt><trkpt lat="52.508240620014995" lon="-3.684317587811628"><ele>452.00000000000006</ele><time>2026-04-11T09:36:58Z</time></trkpt><trkpt lat="52.50827285378746" lon="-3.684467832767447"><ele>452.00000000000006</ele><time>2026-04-11T09:36:59Z</time></trkpt><trkpt lat="52.508303866900356" lon="-3.684639476001239"><ele>452.0</ele><time>2026-04-11T09:37:00Z</time></trkpt><trkpt lat="52.50834210068745" lon="-3.6848134611208736"><ele>452.0</ele><time>2026-04-11T09:37:01Z</time></trkpt><trkpt lat="52.508388420636976" lon="-3.6849929075714507"><ele>453.25</ele><time>2026-04-11T09:37:02Z</time></trkpt><trkpt lat="52.50844678921718" lon="-3.685181773813223"><ele>454.5</ele><time>2026-04-11T09:37:03Z</time></trkpt><trkpt lat="52.50850845419075" lon="-3.685363716293003"><ele>455.75</ele><time>2026-04-11T09:37:04Z</time></trkpt><trkpt lat="52.50856909978234" lon="-3.6855376620281497"><ele>457.0</ele><time>2026-04-11T09:37:05Z</time></trkpt><trkpt lat="52.508632356206824" lon="-3.685705169910387"><ele>457.75</ele><time>2026-04-11T09:37:06Z</time></trkpt><trkpt lat="52.50870043041142" lon="-3.685867942406014"><ele>458.5</ele><time>2026-04-11T09:37:07Z</time></trkpt><trkpt lat="52.50877508399694" lon="-3.6860250624676514"><ele>459.25</ele><time>2026-04-11T09:37:08Z</time></trkpt><trkpt lat="52.5088531965379" lon="-3.6861518317989326"><ele>460.0</ele><time>2026-04-11T09:37:09Z</time></trkpt><trkpt lat="52.50892437194871" lon="-3.686266460650767"><ele>462.6</ele><time>2026-04-11T09:37:10Z</time></trkpt><trkpt lat="52.50899394999796" lon="-3.6863867502589436"><ele>465.2</ele><time>2026-04-11T09:37:11Z</time></trkpt><trkpt lat="52.50905207266428" lon="-3.6865286540122932"><ele>467.79999999999995</ele><time>2026-04-11T09:37:12Z</time></trkpt><trkpt lat="52.50911416546247" lon="-3.6866993370801104"><ele>470.4</ele><time>2026-04-11T09:37:13Z</time></trkpt><trkpt lat="52.50918427830136" lon="-3.686855012343433"><ele>473.0</ele><time>2026-04-11T09:37:14Z</time></trkpt><trkpt lat="52.50925530754834" lon="-3.6869867599214152"><ele>472.99999999999994</ele><time>2026-04-11T09:37:15Z</time></trkpt><trkpt lat="52.509311337510034" lon="-3.6870997066574396"><ele>473.0</ele><time>2026-04-11T09:37:16Z</time></trkpt><trkpt lat="52.50935865432472" lon="-3.6871927457914206"><ele>473.0</ele><time>2026-04-11T09:37:17Z</time></trkpt><trkpt lat="52.509407818673004" lon="-3.68729857974316"><ele>473.0</ele><time>2026-04-11T09:37:18Z</time></trkpt><trkpt lat="52.509459825061306" lon="-3.687405165649733"><ele>472.99999999999994</ele><time>2026-04-11T09:37:19Z</time></trkpt><trkpt lat="52.50952926601144" lon="-3.687535027924624"><ele>473.0</ele><time>2026-04-11T09:37:20Z</time></trkpt><trkpt lat="52.50959830383198" lon="-3.687670617210859"><ele>473.2</ele><time>2026-04-11T09:37:21Z</time></trkpt><trkpt lat="52.50966253093516" lon="-3.687794488638054"><ele>473.4</ele><time>2026-04-11T09:37:22Z</time></trkpt><trkpt lat="52.509722494361206" lon="-3.6879092728336635"><ele>473.59999999999997</ele><time>2026-04-11T09:37:23Z</time></trkpt><trkpt lat="52.509780994925634" lon="-3.6880215350808263"><ele>473.79999999999995</ele><time>2026-04-11T09:37:24Z</time></trkpt><trkpt lat="52.509827868974604" lon="-3.6881021052756755"><ele>474.0</ele><time>2026-04-11T09:37:25Z</time></trkpt><trkpt lat="52.50991195695575" lon="-3.6882267045520334"><ele>474.0</ele><time>2026-04-11T09:37:27Z</time></trkpt><trkpt lat="52.509964190723025" lon="-3.688297045594994"><ele>474.0</ele><time>2026-04-11T09:37:28Z</time></trkpt><trkpt lat="52.510062135890465" lon="-3.688444680931144"><ele>474.0</ele><time>2026-04-11T09:37:30Z</time></trkpt><trkpt lat="52.51012278892344" lon="-3.6885165332048"><ele>474.0</ele><time>2026-04-11T09:37:31Z</time></trkpt><trkpt lat="52.51017853277055" lon="-3.6885832455720724"><ele>474.0</ele><time>2026-04-11T09:37:32Z</time></trkpt><trkpt lat="52.51023365990624" lon="-3.688640505542561"><ele>474.0</ele><time>2026-04-11T09:37:33Z</time></trkpt><trkpt lat="52.51032589823561" lon="-3.68873272582647"><ele>474.0</ele><time>2026-04-11T09:37:35Z</time></trkpt><trkpt lat="52.51038982242444" lon="-3.6887989720228176"><ele>474.0</ele><time>2026-04-11T09:37:37Z</time></trkpt><trkpt lat="52.51044119623791" lon="-3.6888666700983843"><ele>474.0</ele><time>2026-04-11T09:37:50Z</time></trkpt><trkpt lat="52.51034863502394" lon="-3.6887613846731977"><ele>474.0</ele><time>2026-04-11T09:39:07Z</time></trkpt><trkpt lat="52.51018903276281" lon="-3.6885992454815932"><ele>474.0</ele><time>2026-04-11T09:39:09Z</time></trkpt><trkpt lat="52.510117943937374" lon="-3.6885108362741073"><ele>474.0</ele><time>2026-04-11T09:39:10Z</time></trkpt><trkpt lat="52.51004161132022" lon="-3.68841110810967"><ele>474.0</ele><time>2026-04-11T09:39:11Z</time></trkpt><trkpt lat="52.50996264479443" lon="-3.6883012668300115"><ele>474.0</ele><time>2026-04-11T09:39:12Z</time></trkpt><trkpt lat="52.50987810105191" lon="-3.688182617316905"><ele>474.0</ele><time>2026-04-11T09:39:13Z</time></trkpt><trkpt lat="52.50980722759575" lon="-3.6880763130037995"><ele>474.0</ele><time>2026-04-11T09:39:14Z</time></trkpt><trkpt lat="52.50974514297013" lon="-3.6879710364762133"><ele>474.0</ele><time>2026-04-11T09:39:15Z</time></trkpt><trkpt lat="52.50967196576091" lon="-3.6878500058752985"><ele>474.0</ele><time>2026-04-11T09:39:16Z</time></trkpt><trkpt lat="52.509613542901036" lon="-3.6877417456113406"><ele>474.0</ele><time>2026-04-11T09:39:17Z</time></trkpt><trkpt lat="52.5095604801737" lon="-3.68761474136429"><ele>474.0</ele><time>2026-04-11T09:39:18Z</time></trkpt><trkpt lat="52.50949966686173" lon="-3.687494071486186"><ele>474.0</ele><time>2026-04-11T09:39:19Z</time></trkpt><trkpt lat="52.50943104887738" lon="-3.6873621804917547"><ele>473.8333333333333</ele><time>2026-04-11T09:39:20Z</time></trkpt><trkpt lat="52.5093667592645" lon="-3.6872349729715697"><ele>473.66666666666663</ele><time>2026-04-11T09:39:21Z</time></trkpt><trkpt lat="52.509325131261576" lon="-3.6871396842727355"><ele>473.5</ele><time>2026-04-11T09:39:22Z</time></trkpt><trkpt lat="52.50927752984681" lon="-3.6870480331986726"><ele>473.3333333333333</ele><time>2026-04-11T09:39:23Z</time></trkpt><trkpt lat="52.50922503158105" lon="-3.6869381451910344"><ele>473.16666666666663</ele><time>2026-04-11T09:39:24Z</time></trkpt><trkpt lat="52.50917511452629" lon="-3.686826394074994"><ele>473.0</ele><time>2026-04-11T09:39:25Z</time></trkpt><trkpt lat="52.50911986827734" lon="-3.686717854180594"><ele>473.4</ele><time>2026-04-11T09:39:26Z</time></trkpt><trkpt lat="52.50906234910143" lon="-3.686596089070619"><ele>473.79999999999995</ele><time>2026-04-11T09:39:27Z</time></trkpt><trkpt lat="52.50900703745498" lon="-3.686457995312796"><ele>474.2</ele><time>2026-04-11T09:39:28Z</time></trkpt><trkpt lat="52.50895537841021" lon="-3.6863303474391502"><ele>474.6</ele><time>2026-04-11T09:39:29Z</time></trkpt><trkpt lat="52.50890597772893" lon="-3.686221250799902"><ele>475.0</ele><time>2026-04-11T09:39:30Z</time></trkpt><trkpt lat="52.508842597152466" lon="-3.68611287038749"><ele>474.4</ele><time>2026-04-11T09:39:31Z</time></trkpt><trkpt lat="52.508775913079184" lon="-3.6860015704582825"><ele>473.8</ele><time>2026-04-11T09:39:32Z</time></trkpt><trkpt lat="52.50870688224035" lon="-3.6858811298308365"><ele>473.20000000000005</ele><time>2026-04-11T09:39:33Z</time></trkpt><trkpt lat="52.508642192179494" lon="-3.685735576288026"><ele>472.6</ele><time>2026-04-11T09:39:34Z</time></trkpt><trkpt lat="52.50858053761629" lon="-3.6855826814605397"><ele>472.0</ele><time>2026-04-11T09:39:35Z</time></trkpt><trkpt lat="52.508521601479885" lon="-3.685414247094343"><ele>468.25</ele><time>2026-04-11T09:39:36Z</time></trkpt><trkpt lat="52.50846449514165" lon="-3.6852430458499086"><ele>464.5</ele><time>2026-04-11T09:39:37Z</time></trkpt><trkpt lat="52.508413053459265" lon="-3.6850686843059712"><ele>460.75</ele><time>2026-04-11T09:39:38Z</time></trkpt><trkpt lat="52.50836146635744" lon="-3.6848944516836486"><ele>457.0</ele><time>2026-04-11T09:39:39Z</time></trkpt><trkpt lat="52.50831619212569" lon="-3.6847286613243813"><ele>457.0</ele><time>2026-04-11T09:39:40Z</time></trkpt><trkpt lat="52.50828175125606" lon="-3.684557023132612"><ele>457.00000000000006</ele><time>2026-04-11T09:39:41Z</time></trkpt><trkpt lat="52.50825128405648" lon="-3.6843904353688437"><ele>457.00000000000006</ele><time>2026-04-11T09:39:42Z</time></trkpt><trkpt lat="52.508213860802755" lon="-3.6842288912187233"><ele>457.0</ele><time>2026-04-11T09:39:43Z</time></trkpt><trkpt lat="52.50817239558465" lon="-3.6840910506088043"><ele>457.0</ele><time>2026-04-11T09:39:44Z</time></trkpt><trkpt lat="52.508108877101925" lon="-3.68395273137976"><ele>455.75</ele><time>2026-04-11T09:39:45Z</time></trkpt><trkpt lat="52.508029100079646" lon="-3.683786156060801"><ele>454.5</ele><time>2026-04-11T09:39:46Z</time></trkpt><trkpt lat="52.50795018436288" lon="-3.6836045996202884"><ele>453.25</ele><time>2026-04-11T09:39:47Z</time></trkpt><trkpt lat="52.50787929987926" lon="-3.683423850154943"><ele>452.0</ele><time>2026-04-11T09:39:48Z</time></trkpt><trkpt lat="52.50781840855413" lon="-3.683252403651368"><ele>449.40000000000003</ele><time>2026-04-11T09:39:49Z</time></trkpt><trkpt lat="52.507758003000134" lon="-3.6830909101054568"><ele>446.80000000000007</ele><time>2026-04-11T09:39:50Z</time></trkpt><trkpt lat="52.5076965586338" lon="-3.682947724311143"><ele>444.2</ele><time>2026-04-11T09:39:51Z</time></trkpt><trkpt lat="52.50764710369801" lon="-3.6828226581788015"><ele>441.6</ele><time>2026-04-11T09:39:52Z</time></trkpt><trkpt lat="52.50757992007427" lon="-3.682691790755013"><ele>439.0</ele><time>2026-04-11T09:39:53Z</time></trkpt><trkpt lat="52.50748418304398" lon="-3.682552982517371"><ele>438.0</ele><time>2026-04-11T09:39:54Z</time></trkpt><trkpt lat="52.50738287885497" lon="-3.682413412836614"><ele>437.0</ele><time>2026-04-11T09:39:55Z</time></trkpt><trkpt lat="52.50729070445289" lon="-3.682291421153104"><ele>436.0</ele><time>2026-04-11T09:39:56Z</time></trkpt><trkpt lat="52.507206945308084" lon="-3.6821826231490107"><ele>435.0</ele><time>2026-04-11T09:39:57Z</time></trkpt><trkpt lat="52.50713778496882" lon="-3.6820793551123505"><ele>435.0</ele><time>2026-04-11T09:39:58Z</time></trkpt><trkpt lat="52.50708321104601" lon="-3.681938090153007"><ele>435.0</ele><time>2026-04-11T09:39:59Z</time></trkpt><trkpt lat="52.50705067193977" lon="-3.681745479931766"><ele>435.0</ele><time>2026-04-11T09:40:00Z</time></trkpt><trkpt lat="52.50702312384874" lon="-3.681576968807742"><ele>435.0</ele><time>2026-04-11T09:40:01Z</time></trkpt><trkpt lat="52.50699605356655" lon="-3.681462636199806"><ele>435.0</ele><time>2026-04-11T09:40:02Z</time></trkpt><trkpt lat="52.50695131874119" lon="-3.681361422109535"><ele>433.5</ele><time>2026-04-11T09:40:05Z</time></trkpt><trkpt lat="52.5069341958511" lon="-3.6812611690171435"><ele>432.0</ele><time>2026-04-11T09:40:08Z</time></trkpt><trkpt lat="52.5069225400392" lon="-3.6811397338033283"><ele>430.5</ele><time>2026-04-11T09:40:11Z</time></trkpt><trkpt lat="52.506922057189136" lon="-3.681019265571663"><ele>429.0</ele><time>2026-04-11T09:40:13Z</time></trkpt><trkpt lat="52.50693763924317" lon="-3.680842207350017"><ele>427.5</ele><time>2026-04-11T09:40:15Z</time></trkpt><trkpt lat="52.50695810572949" lon="-3.680660577529319"><ele>426.0</ele><time>2026-04-11T09:40:17Z</time></trkpt><trkpt lat="52.50697138115311" lon="-3.6804641328148073"><ele>425.2857142857143</ele><time>2026-04-11T09:40:19Z</time></trkpt><trkpt lat="52.50698067326264" lon="-3.680361467682647"><ele>424.57142857142856</ele><time>2026-04-11T09:40:20Z</time></trkpt><trkpt lat="52.506991328917984" lon="-3.6802528117990567"><ele>423.8571428571429</ele><time>2026-04-11T09:40:21Z</time></trkpt><trkpt lat="52.50700138083149" lon="-3.680137033827103"><ele>423.1428571428571</ele><time>2026-04-11T09:40:22Z</time></trkpt><trkpt lat="52.50701407996768" lon="-3.6800163326629756"><ele>422.42857142857144</ele><time>2026-04-11T09:40:23Z</time></trkpt><trkpt lat="52.507028141611315" lon="-3.6798800695112805"><ele>421.7142857142857</ele><time>2026-04-11T09:40:24Z</time></trkpt><trkpt lat="52.507039652099905" lon="-3.6797425258695173"><ele>421.0</ele><time>2026-04-11T09:40:25Z</time></trkpt><trkpt lat="52.50705148220101" lon="-3.6796027590039606"><ele>419.6</ele><time>2026-04-11T09:40:26Z</time></trkpt><trkpt lat="52.5070749997159" lon="-3.6794563733304226"><ele>418.20000000000005</ele><time>2026-04-11T09:40:27Z</time></trkpt><trkpt lat="52.507093713355026" lon="-3.6793015867891103"><ele>416.79999999999995</ele><time>2026-04-11T09:40:28Z</time></trkpt><trkpt lat="52.50709807399006" lon="-3.6791364658758585"><ele>415.4</ele><time>2026-04-11T09:40:29Z</time></trkpt><trkpt lat="52.50709413751408" lon="-3.6789669751577896"><ele>414.0</ele><time>2026-04-11T09:40:30Z</time></trkpt><trkpt lat="52.507080225403875" lon="-3.6788125926784594"><ele>413.4</ele><time>2026-04-11T09:40:31Z</time></trkpt><trkpt lat="52.50706558830368" lon="-3.678637018470112"><ele>412.79999999999995</ele><time>2026-04-11T09:40:32Z</time></trkpt><trkpt lat="52.50706159752297" lon="-3.6784821747399703"><ele>412.20000000000005</ele><time>2026-04-11T09:40:33Z</time></trkpt><trkpt lat="52.50705477813281" lon="-3.6783136151848943"><ele>411.6</ele><time>2026-04-11T09:40:34Z</time></trkpt><trkpt lat="52.507047230196676" lon="-3.6781558483448507"><ele>411.0</ele><time>2026-04-11T09:40:35Z</time></trkpt><trkpt lat="52.50704247775489" lon="-3.678002379654942"><ele>411.0</ele><time>2026-04-11T09:40:36Z</time></trkpt><trkpt lat="52.50703718353635" lon="-3.6778316825676733"><ele>411.0</ele><time>2026-04-11T09:40:37Z</time></trkpt><trkpt lat="52.50702949412063" lon="-3.677657718316912"><ele>411.0</ele><time>2026-04-11T09:40:38Z</time></trkpt><trkpt lat="52.50701775022919" lon="-3.677493751787472"><ele>411.0</ele><time>2026-04-11T09:40:39Z</time></trkpt><trkpt lat="52.50700607707141" lon="-3.6773429827972905"><ele>411.0</ele><time>2026-04-11T09:40:40Z</time></trkpt><trkpt lat="52.50699708540054" lon="-3.6771884216492516"><ele>411.1666666666667</ele><time>2026-04-11T09:40:41Z</time></trkpt><trkpt lat="52.506991798842144" lon="-3.677065461934501"><ele>411.33333333333337</ele><time>2026-04-11T09:40:42Z</time></trkpt><trkpt lat="52.50696905969304" lon="-3.6768752292787505"><ele>411.5</ele><time>2026-04-11T09:40:44Z</time></trkpt><trkpt lat="52.50693377246067" lon="-3.676708109618683"><ele>411.6666666666667</ele><time>2026-04-11T09:40:46Z</time></trkpt><trkpt lat="52.50690277313964" lon="-3.6765963294672854"><ele>411.83333333333337</ele><time>2026-04-11T09:40:48Z</time></trkpt><trkpt lat="52.50687055583326" lon="-3.676488434741844"><ele>412.0</ele><time>2026-04-11T09:40:50Z</time></trkpt><trkpt lat="52.506831569882614" lon="-3.676372491018844"><ele>412.0</ele><time>2026-04-11T09:40:52Z</time></trkpt><trkpt lat="52.50676152273414" lon="-3.676258134941188"><ele>412.0</ele><time>2026-04-11T09:40:54Z</time></trkpt><trkpt lat="52.506667385581174" lon="-3.6761639357210725"><ele>412.0</ele><time>2026-04-11T09:40:56Z</time></trkpt><trkpt lat="52.506565834114745" lon="-3.676026753245447"><ele>412.0</ele><time>2026-04-11T09:40:58Z</time></trkpt><trkpt lat="52.5065210016054" lon="-3.6759465458501235"><ele>412.0</ele><time>2026-04-11T09:40:59Z</time></trkpt><trkpt lat="52.50648802182826" lon="-3.675831789283772"><ele>411.75</ele><time>2026-04-11T09:41:00Z</time></trkpt><trkpt lat="52.506451294129086" lon="-3.675685762839591"><ele>411.5</ele><time>2026-04-11T09:41:01Z</time></trkpt><trkpt lat="52.506406620196884" lon="-3.6755167078769726"><ele>411.25</ele><time>2026-04-11T09:41:02Z</time></trkpt><trkpt lat="52.5063590907454" lon="-3.6753365233363353"><ele>411.0</ele><time>2026-04-11T09:41:03Z</time></trkpt><trkpt lat="52.50630876882769" lon="-3.6751495468559736"><ele>410.25</ele><time>2026-04-11T09:41:04Z</time></trkpt><trkpt lat="52.50625128350918" lon="-3.674958175704849"><ele>409.5</ele><time>2026-04-11T09:41:05Z</time></trkpt><trkpt lat="52.5061945532057" lon="-3.6747650416898345"><ele>408.75</ele><time>2026-04-11T09:41:06Z</time></trkpt><trkpt lat="52.506142099168486" lon="-3.6745792973102063"><ele>408.0</ele><time>2026-04-11T09:41:07Z</time></trkpt><trkpt lat="52.506092941019396" lon="-3.6744060832036727"><ele>407.0</ele><time>2026-04-11T09:41:08Z</time></trkpt><trkpt lat="52.50603789877892" lon="-3.674225920752897"><ele>406.0</ele><time>2026-04-11T09:41:09Z</time></trkpt><trkpt lat="52.505987167737096" lon="-3.674053632373651"><ele>405.0</ele><time>2026-04-11T09:41:10Z</time></trkpt><trkpt lat="52.50593153283133" lon="-3.673883879535995"><ele>404.0</ele><time>2026-04-11T09:41:11Z</time></trkpt><trkpt lat="52.50588319094557" lon="-3.673715653889944"><ele>403.4</ele><time>2026-04-11T09:41:12Z</time></trkpt><trkpt lat="52.50583896884441" lon="-3.673564064810161"><ele>402.79999999999995</ele><time>2026-04-11T09:41:13Z</time></trkpt><trkpt lat="52.50579304351125" lon="-3.6734192239669428"><ele>402.20000000000005</ele><time>2026-04-11T09:41:14Z</time></trkpt><trkpt lat="52.505754000843645" lon="-3.6732782608925474"><ele>401.6</ele><time>2026-04-11T09:41:15Z</time></trkpt><trkpt lat="52.50570546784095" lon="-3.6731241541419486"><ele>401.0</ele><time>2026-04-11T09:41:16Z</time></trkpt><trkpt lat="52.50564975581436" lon="-3.6729633175426555"><ele>401.0</ele><time>2026-04-11T09:41:17Z</time></trkpt><trkpt lat="52.50559857267567" lon="-3.6727862161664944"><ele>401.0</ele><time>2026-04-11T09:41:18Z</time></trkpt><trkpt lat="52.50555616617069" lon="-3.6726044706389103"><ele>401.0</ele><time>2026-04-11T09:41:19Z</time></trkpt><trkpt lat="52.505514027972154" lon="-3.6724215709801338"><ele>401.0</ele><time>2026-04-11T09:41:20Z</time></trkpt><trkpt lat="52.50547435053479" lon="-3.6722446587299573"><ele>400.6</ele><time>2026-04-11T09:41:21Z</time></trkpt><trkpt lat="52.50543360594442" lon="-3.6720690470747517"><ele>400.20000000000005</ele><time>2026-04-11T09:41:22Z</time></trkpt><trkpt lat="52.50539136966431" lon="-3.6718963291317626"><ele>399.79999999999995</ele><time>2026-04-11T09:41:23Z</time></trkpt><trkpt lat="52.50535282185335" lon="-3.6717245587337666"><ele>399.4</ele><time>2026-04-11T09:41:24Z</time></trkpt><trkpt lat="52.50530924918336" lon="-3.6715713849213985"><ele>399.0</ele><time>2026-04-11T09:41:25Z</time></trkpt><trkpt lat="52.50526421915447" lon="-3.671434319513575"><ele>397.8333333333333</ele><time>2026-04-11T09:41:26Z</time></trkpt><trkpt lat="52.50520892616503" lon="-3.6713106714064287"><ele>396.66666666666663</ele><time>2026-04-11T09:41:27Z</time></trkpt><trkpt lat="52.50514399978463" lon="-3.671183515027032"><ele>395.5</ele><time>2026-04-11T09:41:28Z</time></trkpt><trkpt lat="52.505079215977304" lon="-3.671074794304798"><ele>394.3333333333333</ele><time>2026-04-11T09:41:29Z</time></trkpt><trkpt lat="52.50502158569044" lon="-3.6709799059657446"><ele>393.16666666666663</ele><time>2026-04-11T09:41:30Z</time></trkpt><trkpt lat="52.50498619175617" lon="-3.670877954937414"><ele>392.0</ele><time>2026-04-11T09:41:31Z</time></trkpt><trkpt lat="52.50497288294246" lon="-3.6707478479293885"><ele>390.20000000000005</ele><time>2026-04-11T09:41:32Z</time></trkpt><trkpt lat="52.50497551103614" lon="-3.6706086527378727"><ele>388.4</ele><time>2026-04-11T09:41:33Z</time></trkpt><trkpt lat="52.50496374755579" lon="-3.670447570847589"><ele>386.6</ele><time>2026-04-11T09:41:34Z</time></trkpt><trkpt lat="52.50494053497642" lon="-3.670279636878262"><ele>384.79999999999995</ele><time>2026-04-11T09:41:35Z</time></trkpt><trkpt lat="52.504921138987726" lon="-3.6701092582763204"><ele>383.0</ele><time>2026-04-11T09:41:36Z</time></trkpt><trkpt lat="52.50490116538982" lon="-3.6699348524689133"><ele>380.79999999999995</ele><time>2026-04-11T09:41:37Z</time></trkpt><trkpt lat="52.50488000243009" lon="-3.6697639339018537"><ele>378.6</ele><time>2026-04-11T09:41:38Z</time></trkpt><trkpt lat="52.50485647952255" lon="-3.6696081433234364"><ele>376.4</ele><time>2026-04-11T09:41:39Z</time></trkpt><trkpt lat="52.50483872814072" lon="-3.6694655001518006"><ele>374.20000000000005</ele><time>2026-04-11T09:41:40Z</time></trkpt><trkpt lat="52.50482759795974" lon="-3.669320664141406"><ele>372.0</ele><time>2026-04-11T09:41:41Z</time></trkpt><trkpt lat="52.50483140011434" lon="-3.6691592129557753"><ele>370.40000000000003</ele><time>2026-04-11T09:41:42Z</time></trkpt><trkpt lat="52.50485108127179" lon="-3.669003675162747"><ele>368.8</ele><time>2026-04-11T09:41:43Z</time></trkpt><trkpt lat="52.504882091227906" lon="-3.668858566605556"><ele>367.2</ele><time>2026-04-11T09:41:44Z</time></trkpt><trkpt lat="52.50490768446227" lon="-3.6687132252380024"><ele>365.6</ele><time>2026-04-11T09:41:45Z</time></trkpt><trkpt lat="52.50493367952873" lon="-3.668570091483393"><ele>364.0</ele><time>2026-04-11T09:41:46Z</time></trkpt><trkpt lat="52.5049505057261" lon="-3.668415895871628"><ele>362.79999999999995</ele><time>2026-04-11T09:41:47Z</time></trkpt><trkpt lat="52.504971415978176" lon="-3.6682700014859124"><ele>361.59999999999997</ele><time>2026-04-11T09:41:48Z</time></trkpt><trkpt lat="52.50499723556062" lon="-3.668120167581785"><ele>360.4</ele><time>2026-04-11T09:41:49Z</time></trkpt><trkpt lat="52.50502051496232" lon="-3.6679638787149833"><ele>359.2</ele><time>2026-04-11T09:41:50Z</time></trkpt><trkpt lat="52.50503878525657" lon="-3.6677968371399774"><ele>358.0</ele><time>2026-04-11T09:41:51Z</time></trkpt><trkpt lat="52.50505838124635" lon="-3.667635708622054"><ele>356.0</ele><time>2026-04-11T09:41:52Z</time></trkpt><trkpt lat="52.505071933731486" lon="-3.667469905428696"><ele>354.0</ele><time>2026-04-11T09:41:53Z</time></trkpt><trkpt lat="52.50507710451679" lon="-3.6672976300421425"><ele>352.0</ele><time>2026-04-11T09:41:54Z</time></trkpt><trkpt lat="52.50507683060324" lon="-3.6671371540021873"><ele>350.0</ele><time>2026-04-11T09:41:55Z</time></trkpt><trkpt lat="52.50507190828289" lon="-3.6669886373440055"><ele>348.0</ele><time>2026-04-11T09:41:56Z</time></trkpt><trkpt lat="52.50506507672938" lon="-3.6668502145176953"><ele>346.79999999999995</ele><time>2026-04-11T09:41:57Z</time></trkpt><trkpt lat="52.50507785631012" lon="-3.6667097865410434"><ele>345.6</ele><time>2026-04-11T09:41:58Z</time></trkpt><trkpt lat="52.5050921922372" lon="-3.6665517725640284"><ele>344.4</ele><time>2026-04-11T09:41:59Z</time></trkpt><trkpt lat="52.505111392748816" lon="-3.6663900335547113"><ele>343.20000000000005</ele><time>2026-04-11T09:42:00Z</time></trkpt><trkpt lat="52.50514271653416" lon="-3.666221401035068"><ele>342.0</ele><time>2026-04-11T09:42:01Z</time></trkpt><trkpt lat="52.50517974210158" lon="-3.6660575565766265"><ele>340.8</ele><time>2026-04-11T09:42:02Z</time></trkpt><trkpt lat="52.505225031376064" lon="-3.665893210790421"><ele>339.6</ele><time>2026-04-11T09:42:03Z</time></trkpt><trkpt lat="52.5052700846158" lon="-3.665729904255211"><ele>338.40000000000003</ele><time>2026-04-11T09:42:04Z</time></trkpt><trkpt lat="52.50531058819995" lon="-3.6655631338987598"><ele>337.20000000000005</ele><time>2026-04-11T09:42:05Z</time></trkpt><trkpt lat="52.50534278063082" lon="-3.665401910405045"><ele>336.0</ele><time>2026-04-11T09:42:06Z</time></trkpt><trkpt lat="52.5053709883807" lon="-3.6652410221782086"><ele>334.6</ele><time>2026-04-11T09:42:07Z</time></trkpt><trkpt lat="52.50540051863128" lon="-3.6650753530349536"><ele>333.20000000000005</ele><time>2026-04-11T09:42:08Z</time></trkpt><trkpt lat="52.50542511006065" lon="-3.6649151018672272"><ele>331.79999999999995</ele><time>2026-04-11T09:42:09Z</time></trkpt><trkpt lat="52.5054395683362" lon="-3.6647703227582027"><ele>330.4</ele><time>2026-04-11T09:42:10Z</time></trkpt><trkpt lat="52.50546087295191" lon="-3.664626412360893"><ele>329.0</ele><time>2026-04-11T09:42:11Z</time></trkpt><trkpt lat="52.50550149408357" lon="-3.6645039106293735"><ele>328.1666666666667</ele><time>2026-04-11T09:42:12Z</time></trkpt><trkpt lat="52.50555520462399" lon="-3.6643898642746118"><ele>327.33333333333337</ele><time>2026-04-11T09:42:13Z</time></trkpt><trkpt lat="52.505603297042306" lon="-3.6642901543198745"><ele>326.5</ele><time>2026-04-11T09:42:14Z</time></trkpt><trkpt lat="52.5056596982207" lon="-3.664180560366764"><ele>325.6666666666667</ele><time>2026-04-11T09:42:15Z</time></trkpt><trkpt lat="52.505718181738985" lon="-3.6640567598952063"><ele>324.8333333333333</ele><time>2026-04-11T09:42:16Z</time></trkpt><trkpt lat="52.50577811039879" lon="-3.6639349410118287"><ele>324.0</ele><time>2026-04-11T09:42:17Z</time></trkpt><trkpt lat="52.50584026361424" lon="-3.663814761123382"><ele>324.0</ele><time>2026-04-11T09:42:18Z</time></trkpt><trkpt lat="52.505899783197755" lon="-3.6636957595614374"><ele>324.0</ele><time>2026-04-11T09:42:19Z</time></trkpt><trkpt lat="52.50595632478098" lon="-3.6635687961490264"><ele>324.0</ele><time>2026-04-11T09:42:20Z</time></trkpt><trkpt lat="52.50601310081036" lon="-3.663456897496529"><ele>324.0</ele><time>2026-04-11T09:42:21Z</time></trkpt><trkpt lat="52.50606837234834" lon="-3.66334656872732"><ele>324.0</ele><time>2026-04-11T09:42:22Z</time></trkpt><trkpt lat="52.506112337468885" lon="-3.6632312733257177"><ele>324.0</ele><time>2026-04-11T09:42:23Z</time></trkpt><trkpt lat="52.50613759288268" lon="-3.663112052308337"><ele>323.0</ele><time>2026-04-11T09:42:24Z</time></trkpt><trkpt lat="52.50615194539542" lon="-3.6629810341952527"><ele>322.0</ele><time>2026-04-11T09:42:25Z</time></trkpt><trkpt lat="52.50616735862542" lon="-3.6628350723082974"><ele>321.0</ele><time>2026-04-11T09:42:26Z</time></trkpt><trkpt lat="52.506191546527226" lon="-3.662692284060496"><ele>320.0</ele><time>2026-04-11T09:42:27Z</time></trkpt><trkpt lat="52.50621823251982" lon="-3.6625473367837853"><ele>319.0</ele><time>2026-04-11T09:42:28Z</time></trkpt><trkpt lat="52.50624405661968" lon="-3.6624121194064903"><ele>318.0</ele><time>2026-04-11T09:42:29Z</time></trkpt><trkpt lat="52.50626621295368" lon="-3.662276742676179"><ele>316.6666666666667</ele><time>2026-04-11T09:42:30Z</time></trkpt><trkpt lat="52.506288632248136" lon="-3.6621403507055335"><ele>315.3333333333333</ele><time>2026-04-11T09:42:31Z</time></trkpt><trkpt lat="52.50630532800277" lon="-3.662002748527994"><ele>314.0</ele><time>2026-04-11T09:42:32Z</time></trkpt><trkpt lat="52.50632742204685" lon="-3.6618769282863157"><ele>312.66666666666663</ele><time>2026-04-11T09:42:33Z</time></trkpt><trkpt lat="52.5063462660565" lon="-3.6617605079350484"><ele>311.3333333333333</ele><time>2026-04-11T09:42:34Z</time></trkpt><trkpt lat="52.506380194486184" lon="-3.6616003897585068"><ele>310.0</ele><time>2026-04-11T09:42:36Z</time></trkpt><trkpt lat="52.506427136022324" lon="-3.661518027593761"><ele>309.66666666666663</ele><time>2026-04-11T09:42:39Z</time></trkpt><trkpt lat="52.50653109553907" lon="-3.6614782820069056"><ele>309.3333333333333</ele><time>2026-04-11T09:43:15Z</time></trkpt><trkpt lat="52.50659815561662" lon="-3.6614715489296397"><ele>309.0</ele><time>2026-04-11T09:43:16Z</time></trkpt><trkpt lat="52.506662212070516" lon="-3.6614577205089933"><ele>308.6666666666667</ele><time>2026-04-11T09:43:17Z</time></trkpt><trkpt lat="52.506730013802255" lon="-3.661446208291371"><ele>308.33333333333337</ele><time>2026-04-11T09:43:18Z</time></trkpt><trkpt lat="52.50684428055876" lon="-3.661422695995594"><ele>308.0</ele><time>2026-04-11T09:43:20Z</time></trkpt><trkpt lat="52.5069255661097" lon="-3.6614065966330465"><ele>308.0</ele><time>2026-04-11T09:43:22Z</time></trkpt><trkpt lat="52.50698971787465" lon="-3.6613110861726224"><ele>308.0</ele><time>2026-04-11T09:43:26Z</time></trkpt><trkpt lat="52.507011217794506" lon="-3.6612064698762734"><ele>308.0</ele><time>2026-04-11T09:43:43Z</time></trkpt><trkpt lat="52.5069515958763" lon="-3.6611683804581885"><ele>308.0</ele><time>2026-04-11T09:44:32Z</time></trkpt><trkpt lat="52.50701477488754" lon="-3.6611222317400838"><ele>308.0</ele><time>2026-04-11T09:45:37Z</time></trkpt><trkpt lat="52.50706412330018" lon="-3.6609985300971366"><ele>308.0</ele><time>2026-04-11T09:45:40Z</time></trkpt><trkpt lat="52.507093497727354" lon="-3.6608952672868385"><ele>308.0</ele><time>2026-04-11T09:45:42Z</time></trkpt><trkpt lat="52.507140802810035" lon="-3.6608163183908804"><ele>307.5</ele><time>2026-04-11T09:45:44Z</time></trkpt><trkpt lat="52.50719102696035" lon="-3.6607479041909765"><ele>307.0</ele><time>2026-04-11T09:45:46Z</time></trkpt><trkpt lat="52.50725803041347" lon="-3.660650913442978"><ele>306.5</ele><time>2026-04-11T09:45:49Z</time></trkpt><trkpt lat="52.507319977378444" lon="-3.6605189355365684"><ele>306.0</ele><time>2026-04-11T09:45:52Z</time></trkpt><trkpt lat="52.5073620615732" lon="-3.660413128049666"><ele>305.5</ele><time>2026-04-11T09:45:54Z</time></trkpt><trkpt lat="52.5074345227488" lon="-3.660326371729263"><ele>305.0</ele><time>2026-04-11T09:45:56Z</time></trkpt><trkpt lat="52.50751418394479" lon="-3.6602410925921225"><ele>304.5</ele><time>2026-04-11T09:45:58Z</time></trkpt><trkpt lat="52.507599414801945" lon="-3.6601332862050064"><ele>304.0</ele><time>2026-04-11T09:46:00Z</time></trkpt><trkpt lat="52.5076655404963" lon="-3.660113954781917"><ele>303.5</ele><time>2026-04-11T09:46:01Z</time></trkpt><trkpt lat="52.507758155137616" lon="-3.659967844780847"><ele>303.0</ele><time>2026-04-11T09:46:03Z</time></trkpt><trkpt lat="52.50780976474738" lon="-3.6598823469443063"><ele>302.5</ele><time>2026-04-11T09:46:04Z</time></trkpt><trkpt lat="52.507859390033005" lon="-3.659805189824387"><ele>302.0</ele><time>2026-04-11T09:46:05Z</time></trkpt><trkpt lat="52.50790704500124" lon="-3.65973720626125"><ele>302.2</ele><time>2026-04-11T09:46:06Z</time></trkpt><trkpt lat="52.50796632138049" lon="-3.659656263242228"><ele>302.4</ele><time>2026-04-11T09:46:07Z</time></trkpt><trkpt lat="52.508026611162606" lon="-3.659546290483836"><ele>302.6</ele><time>2026-04-11T09:46:08Z</time></trkpt><trkpt lat="52.50810270082382" lon="-3.659457405766524"><ele>302.8</ele><time>2026-04-11T09:46:09Z</time></trkpt><trkpt lat="52.50817096950347" lon="-3.6593511078990164"><ele>303.0</ele><time>2026-04-11T09:46:10Z</time></trkpt><trkpt lat="52.50824462545423" lon="-3.659237355398202"><ele>302.2</ele><time>2026-04-11T09:46:11Z</time></trkpt><trkpt lat="52.508312095094965" lon="-3.6591142645144883"><ele>301.4</ele><time>2026-04-11T09:46:12Z</time></trkpt><trkpt lat="52.50836942149272" lon="-3.6589770551261807"><ele>300.59999999999997</ele><time>2026-04-11T09:46:13Z</time></trkpt><trkpt lat="52.50841137574319" lon="-3.658815259929445"><ele>299.8</ele><time>2026-04-11T09:46:14Z</time></trkpt><trkpt lat="52.50844176503322" lon="-3.6586296681955277"><ele>299.0</ele><time>2026-04-11T09:46:15Z</time></trkpt><trkpt lat="52.50845768891068" lon="-3.658441639987611"><ele>298.5</ele><time>2026-04-11T09:46:16Z</time></trkpt><trkpt lat="52.50848478271076" lon="-3.65824810699576"><ele>298.0</ele><time>2026-04-11T09:46:17Z</time></trkpt><trkpt lat="52.50851237127565" lon="-3.658058094017652"><ele>297.5</ele><time>2026-04-11T09:46:18Z</time></trkpt><trkpt lat="52.50854162616458" lon="-3.657865592798987"><ele>297.0</ele><time>2026-04-11T09:46:19Z</time></trkpt><trkpt lat="52.50856979021093" lon="-3.6576817220432316"><ele>296.8</ele><time>2026-04-11T09:46:20Z</time></trkpt><trkpt lat="52.50859758657482" lon="-3.657496216544463"><ele>296.6</ele><time>2026-04-11T09:46:21Z</time></trkpt><trkpt lat="52.508624880579674" lon="-3.6573168667751137"><ele>296.40000000000003</ele><time>2026-04-11T09:46:22Z</time></trkpt><trkpt lat="52.508650730355335" lon="-3.657143974937994"><ele>296.2</ele><time>2026-04-11T09:46:23Z</time></trkpt><trkpt lat="52.508674412533985" lon="-3.6569792158709573"><ele>296.0</ele><time>2026-04-11T09:46:24Z</time></trkpt><trkpt lat="52.50869644586919" lon="-3.6568305547038475"><ele>296.0</ele><time>2026-04-11T09:46:25Z</time></trkpt><trkpt lat="52.50871874495747" lon="-3.6566953740437653"><ele>296.0</ele><time>2026-04-11T09:46:26Z</time></trkpt><trkpt lat="52.5087376357806" lon="-3.6565735417866096"><ele>296.0</ele><time>2026-04-11T09:46:27Z</time></trkpt><trkpt lat="52.50875506417894" lon="-3.6564695011839268"><ele>296.0</ele><time>2026-04-11T09:46:28Z</time></trkpt><trkpt lat="52.50880842968501" lon="-3.6563265437041514"><ele>296.0</ele><time>2026-04-11T09:46:30Z</time></trkpt><trkpt lat="52.5088642766769" lon="-3.6562599299808007"><ele>296.0</ele><time>2026-04-11T09:46:33Z</time></trkpt><trkpt lat="52.50893124670493" lon="-3.6563499722102897"><ele>296.0</ele><time>2026-04-11T09:46:35Z</time></trkpt><trkpt lat="52.509044802733726" lon="-3.6564238180031086"><ele>296.0</ele><time>2026-04-11T09:46:37Z</time></trkpt><trkpt lat="52.50911760042239" lon="-3.6564490648061345"><ele>296.0</ele><time>2026-04-11T09:46:38Z</time></trkpt><trkpt lat="52.50919850883005" lon="-3.6564677616705215"><ele>296.0</ele><time>2026-04-11T09:46:39Z</time></trkpt><trkpt lat="52.50929535162292" lon="-3.6564841177214746"><ele>296.0</ele><time>2026-04-11T09:46:40Z</time></trkpt><trkpt lat="52.50941047000483" lon="-3.656500727983208"><ele>296.0</ele><time>2026-04-11T09:46:41Z</time></trkpt><trkpt lat="52.50953054225391" lon="-3.6565157897892098"><ele>296.0</ele><time>2026-04-11T09:46:42Z</time></trkpt><trkpt lat="52.50965160383386" lon="-3.6565278476958465"><ele>296.0</ele><time>2026-04-11T09:46:43Z</time></trkpt><trkpt lat="52.509776699097564" lon="-3.656539064833165"><ele>296.0</ele><time>2026-04-11T09:46:44Z</time></trkpt><trkpt lat="52.50990132251785" lon="-3.656547746950174"><ele>296.5</ele><time>2026-04-11T09:46:45Z</time></trkpt><trkpt lat="52.510027763704244" lon="-3.6565539741831903"><ele>297.0</ele><time>2026-04-11T09:46:46Z</time></trkpt><trkpt lat="52.51015662892702" lon="-3.6565493098730673"><ele>297.5</ele><time>2026-04-11T09:46:47Z</time></trkpt><trkpt lat="52.51028559914244" lon="-3.656530243241824"><ele>298.0</ele><time>2026-04-11T09:46:48Z</time></trkpt><trkpt lat="52.51041588777424" lon="-3.656498717563616"><ele>299.0</ele><time>2026-04-11T09:46:49Z</time></trkpt><trkpt lat="52.510551330067656" lon="-3.6564604757296313"><ele>300.0</ele><time>2026-04-11T09:46:50Z</time></trkpt><trkpt lat="52.51069177311706" lon="-3.6564160414206235"><ele>301.0</ele><time>2026-04-11T09:46:51Z</time></trkpt><trkpt lat="52.5108292714194" lon="-3.656372538962747"><ele>302.0</ele><time>2026-04-11T09:46:52Z</time></trkpt><trkpt lat="52.510967623459386" lon="-3.6563251376852994"><ele>302.0</ele><time>2026-04-11T09:46:53Z</time></trkpt><trkpt lat="52.51110982051274" lon="-3.6562681375948767"><ele>302.0</ele><time>2026-04-11T09:46:54Z</time></trkpt><trkpt lat="52.511246957160225" lon="-3.656206332003479"><ele>302.0</ele><time>2026-04-11T09:46:55Z</time></trkpt><trkpt lat="52.5113789560003" lon="-3.6561319147958473"><ele>302.0</ele><time>2026-04-11T09:46:56Z</time></trkpt><trkpt lat="52.5115100825413" lon="-3.6560437374445303"><ele>303.5</ele><time>2026-04-11T09:46:57Z</time></trkpt><trkpt lat="52.51163827418557" lon="-3.655953583844784"><ele>305.0</ele><time>2026-04-11T09:46:58Z</time></trkpt><trkpt lat="52.51176160100942" lon="-3.655872676032086"><ele>306.5</ele><time>2026-04-11T09:46:59Z</time></trkpt><trkpt lat="52.51188691904291" lon="-3.6557942709155467"><ele>308.0</ele><time>2026-04-11T09:47:00Z</time></trkpt><trkpt lat="52.51200470317358" lon="-3.655724356845998"><ele>306.5</ele><time>2026-04-11T09:47:01Z</time></trkpt><trkpt lat="52.51212561686252" lon="-3.6556653669972383"><ele>305.0</ele><time>2026-04-11T09:47:02Z</time></trkpt><trkpt lat="52.512248828449486" lon="-3.655618456961819"><ele>303.5</ele><time>2026-04-11T09:47:03Z</time></trkpt><trkpt lat="52.51237178687976" lon="-3.655576706752042"><ele>302.0</ele><time>2026-04-11T09:47:04Z</time></trkpt><trkpt lat="52.51248832793538" lon="-3.6555410473091188"><ele>302.0</ele><time>2026-04-11T09:47:05Z</time></trkpt><trkpt lat="52.5125989357209" lon="-3.655510098579499"><ele>302.0</ele><time>2026-04-11T09:47:06Z</time></trkpt><trkpt lat="52.51271011506673" lon="-3.65548507187227"><ele>302.0</ele><time>2026-04-11T09:47:07Z</time></trkpt><trkpt lat="52.512821473168614" lon="-3.655460005623587"><ele>302.0</ele><time>2026-04-11T09:47:08Z</time></trkpt><trkpt lat="52.512926473632994" lon="-3.6554379130629786"><ele>302.0</ele><time>2026-04-11T09:47:09Z</time></trkpt><trkpt lat="52.51302897659838" lon="-3.655404971433734"><ele>302.0</ele><time>2026-04-11T09:47:10Z</time></trkpt><trkpt lat="52.51311708487178" lon="-3.655334038507281"><ele>302.0</ele><time>2026-04-11T09:47:11Z</time></trkpt><trkpt lat="52.51320697597675" lon="-3.6552471305718215"><ele>302.0</ele><time>2026-04-11T09:47:12Z</time></trkpt><trkpt lat="52.51331006036709" lon="-3.655144785346822"><ele>302.0</ele><time>2026-04-11T09:47:13Z</time></trkpt><trkpt lat="52.513404254195294" lon="-3.655005477120526"><ele>302.25</ele><time>2026-04-11T09:47:14Z</time></trkpt><trkpt lat="52.513498730314865" lon="-3.654861120058566"><ele>302.5</ele><time>2026-04-11T09:47:15Z</time></trkpt><trkpt lat="52.513590570781" lon="-3.654719471136224"><ele>302.75</ele><time>2026-04-11T09:47:16Z</time></trkpt><trkpt lat="52.51368287395653" lon="-3.6545902085976496"><ele>303.0</ele><time>2026-04-11T09:47:17Z</time></trkpt><trkpt lat="52.51378720035383" lon="-3.654479876563119"><ele>303.5</ele><time>2026-04-11T09:47:18Z</time></trkpt><trkpt lat="52.51390462881703" lon="-3.6543934599654295"><ele>304.0</ele><time>2026-04-11T09:47:19Z</time></trkpt><trkpt lat="52.51401911957728" lon="-3.654298144599498"><ele>304.5</ele><time>2026-04-11T09:47:20Z</time></trkpt><trkpt lat="52.514129964012646" lon="-3.6541920962551107"><ele>305.0</ele><time>2026-04-11T09:47:21Z</time></trkpt><trkpt lat="52.514232471433495" lon="-3.654057040689778"><ele>305.0</ele><time>2026-04-11T09:47:22Z</time></trkpt><trkpt lat="52.51433673647402" lon="-3.6539433814572995"><ele>305.0</ele><time>2026-04-11T09:47:23Z</time></trkpt><trkpt lat="52.51443990505202" lon="-3.653831691759286"><ele>305.0</ele><time>2026-04-11T09:47:24Z</time></trkpt><trkpt lat="52.51454522591633" lon="-3.6537214363095614"><ele>305.0</ele><time>2026-04-11T09:47:25Z</time></trkpt><trkpt lat="52.514646947966256" lon="-3.6536145913353084"><ele>305.0</ele><time>2026-04-11T09:47:26Z</time></trkpt><trkpt lat="52.514741542806625" lon="-3.653517229751738"><ele>305.0</ele><time>2026-04-11T09:47:27Z</time></trkpt><trkpt lat="52.51483278603545" lon="-3.6534250139823854"><ele>305.0</ele><time>2026-04-11T09:47:28Z</time></trkpt><trkpt lat="52.514930825201795" lon="-3.6533429805518947"><ele>305.0</ele><time>2026-04-11T09:47:29Z</time></trkpt><trkpt lat="52.51502767192344" lon="-3.6532352092074536"><ele>305.0</ele><time>2026-04-11T09:47:30Z</time></trkpt><trkpt lat="52.51510969956531" lon="-3.653102975422395"><ele>305.0</ele><time>2026-04-11T09:47:31Z</time></trkpt><trkpt lat="52.515165339901614" lon="-3.6529416747781047"><ele>305.0</ele><time>2026-04-11T09:47:32Z</time></trkpt><trkpt lat="52.51521849149134" lon="-3.6527740018081762"><ele>305.0</ele><time>2026-04-11T09:47:33Z</time></trkpt><trkpt lat="52.51527548683437" lon="-3.6525903560810904"><ele>305.0</ele><time>2026-04-11T09:47:34Z</time></trkpt><trkpt lat="52.515326671035" lon="-3.652390831380595"><ele>304.75</ele><time>2026-04-11T09:47:35Z</time></trkpt><trkpt lat="52.515386372109695" lon="-3.652200944489551"><ele>304.5</ele><time>2026-04-11T09:47:36Z</time></trkpt><trkpt lat="52.515447893316775" lon="-3.65201609668972"><ele>304.25</ele><time>2026-04-11T09:47:37Z</time></trkpt><trkpt lat="52.5155143573331" lon="-3.651836437652048"><ele>304.0</ele><time>2026-04-11T09:47:38Z</time></trkpt><trkpt lat="52.515591862067886" lon="-3.6516460097700456"><ele>304.0</ele><time>2026-04-11T09:47:39Z</time></trkpt><trkpt lat="52.51568469002722" lon="-3.651458119479487"><ele>304.0</ele><time>2026-04-11T09:47:40Z</time></trkpt><trkpt lat="52.51577859928942" lon="-3.6512735995932615"><ele>304.0</ele><time>2026-04-11T09:47:41Z</time></trkpt><trkpt lat="52.515876002753956" lon="-3.6510989761535346"><ele>304.0</ele><time>2026-04-11T09:47:42Z</time></trkpt><trkpt lat="52.51596661212145" lon="-3.650934671908362"><ele>304.5</ele><time>2026-04-11T09:47:43Z</time></trkpt><trkpt lat="52.516058425337796" lon="-3.6507728364770116"><ele>305.0</ele><time>2026-04-11T09:47:44Z</time></trkpt><trkpt lat="52.51615085751897" lon="-3.650613078044778"><ele>305.5</ele><time>2026-04-11T09:47:45Z</time></trkpt><trkpt lat="52.51623959695869" lon="-3.6504510961821968"><ele>306.0</ele><time>2026-04-11T09:47:46Z</time></trkpt><trkpt lat="52.51633070843501" lon="-3.6503090567630383"><ele>304.5</ele><time>2026-04-11T09:47:47Z</time></trkpt><trkpt lat="52.516434142072214" lon="-3.6501625657655876"><ele>303.0</ele><time>2026-04-11T09:47:48Z</time></trkpt><trkpt lat="52.51651889402638" lon="-3.650007814378974"><ele>301.5</ele><time>2026-04-11T09:47:49Z</time></trkpt><trkpt lat="52.51660566682053" lon="-3.6498688963712342"><ele>300.0</ele><time>2026-04-11T09:47:50Z</time></trkpt><trkpt lat="52.516646347437835" lon="-3.6496735550144135"><ele>300.0</ele><time>2026-04-11T09:47:51Z</time></trkpt><trkpt lat="52.516689333158475" lon="-3.6494695328249276"><ele>300.0</ele><time>2026-04-11T09:47:52Z</time></trkpt><trkpt lat="52.51675245485426" lon="-3.649281380442921"><ele>300.0</ele><time>2026-04-11T09:47:53Z</time></trkpt><trkpt lat="52.5168042812881" lon="-3.6490894684078374"><ele>300.0</ele><time>2026-04-11T09:47:54Z</time></trkpt><trkpt lat="52.51685251425143" lon="-3.64889189844391"><ele>299.75</ele><time>2026-04-11T09:47:55Z</time></trkpt><trkpt lat="52.51692504382501" lon="-3.6487058766320892"><ele>299.5</ele><time>2026-04-11T09:47:56Z</time></trkpt><trkpt lat="52.51698610746887" lon="-3.6485089285298447"><ele>299.25</ele><time>2026-04-11T09:47:57Z</time></trkpt><trkpt lat="52.51703591697445" lon="-3.648302593548808"><ele>299.0</ele><time>2026-04-11T09:47:58Z</time></trkpt><trkpt lat="52.51709967625626" lon="-3.648119183410673"><ele>297.25</ele><time>2026-04-11T09:47:59Z</time></trkpt><trkpt lat="52.517162054934154" lon="-3.6479340348028124"><ele>295.5</ele><time>2026-04-11T09:48:00Z</time></trkpt><trkpt lat="52.51722143479346" lon="-3.647750248487364"><ele>293.75</ele><time>2026-04-11T09:48:01Z</time></trkpt><trkpt lat="52.51727406642172" lon="-3.647563791571585"><ele>292.0</ele><time>2026-04-11T09:48:02Z</time></trkpt><trkpt lat="52.51731237119464" lon="-3.6473858404016717"><ele>292.0</ele><time>2026-04-11T09:48:03Z</time></trkpt><trkpt lat="52.517341523625554" lon="-3.6472120201981717"><ele>292.0</ele><time>2026-04-11T09:48:04Z</time></trkpt><trkpt lat="52.51735974694951" lon="-3.647044971315817"><ele>292.0</ele><time>2026-04-11T09:48:05Z</time></trkpt><trkpt lat="52.51738069175471" lon="-3.6468826672260994"><ele>292.0</ele><time>2026-04-11T09:48:06Z</time></trkpt><trkpt lat="52.51740950235083" lon="-3.6467296193232044"><ele>292.0</ele><time>2026-04-11T09:48:07Z</time></trkpt><trkpt lat="52.51746935200266" lon="-3.6465803418532134"><ele>292.0</ele><time>2026-04-11T09:48:08Z</time></trkpt><trkpt lat="52.517527796909" lon="-3.64642815716014"><ele>292.0</ele><time>2026-04-11T09:48:09Z</time></trkpt><trkpt lat="52.517576623217515" lon="-3.646260553090858"><ele>292.0</ele><time>2026-04-11T09:48:10Z</time></trkpt><trkpt lat="52.51764629847526" lon="-3.6461150279268146"><ele>292.0</ele><time>2026-04-11T09:48:11Z</time></trkpt><trkpt lat="52.51771097716455" lon="-3.6459849304003775"><ele>292.0</ele><time>2026-04-11T09:48:12Z</time></trkpt><trkpt lat="52.517785774495174" lon="-3.645862942618402"><ele>293.0</ele><time>2026-04-11T09:48:13Z</time></trkpt><trkpt lat="52.51784461037297" lon="-3.645810481272123"><ele>293.0</ele><time>2026-04-11T09:48:14Z</time></trkpt><trkpt lat="52.517922957157936" lon="-3.645780831543607"><ele>295.0</ele><time>2026-04-11T09:48:15Z</time></trkpt><trkpt lat="52.51800560836809" lon="-3.6457318062350166"><ele>295.0</ele><time>2026-04-11T09:48:16Z</time></trkpt><trkpt lat="52.51806851695482" lon="-3.6456904701109356"><ele>295.0</ele><time>2026-04-11T09:48:17Z</time></trkpt><trkpt lat="52.518130111799366" lon="-3.645588113791716"><ele>295.0</ele><time>2026-04-11T09:48:19Z</time></trkpt></trkseg></trk></gpx>